Observation data for Tahoka on 01/18/2019      Previous  Date  Next       Current Mesonet Observations  Soil Data  Daily Summary Page  Observations in Plain Language
KTAS 180600Z 21009KT 08/M01 A3003 RMK A01 T00761007  RH  056%=      5-min Rain = 0
KTAS 180601Z 21009KT 08/M01 A3003 RMK A01 T00761007  RH  056%=      5-min Rain = 0
KTAS 180602Z 20009KT 08/M01 A3003 RMK A01 T00761007  RH  056%=      5-min Rain = 0
KTAS 180603Z 20009KT 08/M01 A3003 RMK A01 T00781006  RH  055%=      5-min Rain = 0
KTAS 180604Z 20010KT 08/M01 A3003 RMK A01 T00801005  RH  055%=      5-min Rain = 0
KTAS 180605Z 20009KT 08/M01 A3003 RMK A01 T00831005  RH  054%=      5-min Rain = 0
KTAS 180606Z 20009KT 08/M01 A3003 RMK A01 T00841005  RH  053%=      5-min Rain = 0
KTAS 180607Z 20009KT 09/M01 A3003 RMK A01 T00851006  RH  053%=      5-min Rain = 0
KTAS 180608Z 20009KT 09/M01 A3003 RMK A01 T00871006  RH  052%=      5-min Rain = 0
KTAS 180609Z 20009KT 09/M01 A3003 RMK A01 T00871006  RH  052%=      5-min Rain = 0
KTAS 180610Z 21009KT 09/M01 A3003 RMK A01 T00881006  RH  052%=      5-min Rain = 0
KTAS 180611Z 21010KT 09/M01 A3003 RMK A01 T00881006  RH  052%=      5-min Rain = 0
KTAS 180612Z 21009KT 09/M01 A3003 RMK A01 T00891006  RH  051%=      5-min Rain = 0
KTAS 180613Z 21010KT 09/M01 A3003 RMK A01 T00901006  RH  051%=      5-min Rain = 0
KTAS 180614Z 21010KT 09/M01 A3003 RMK A01 T00911006  RH  051%=      5-min Rain = 0
KTAS 180615Z 21009KT 09/M01 A3002 RMK A01 T00921006  RH  050%=      5-min Rain = 0
KTAS 180616Z 21010KT 09/M01 A3002 RMK A01 T00921006  RH  050%=      5-min Rain = 0
KTAS 180617Z 21009KT 09/M01 A3002 RMK A01 T00921006  RH  050%=      5-min Rain = 0
KTAS 180618Z 21010KT 09/M01 A3002 RMK A01 T00921006  RH  050%=      5-min Rain = 0
KTAS 180619Z 21009KT 09/M01 A3002 RMK A01 T00921006  RH  050%=      5-min Rain = 0
KTAS 180620Z 21009KT 09/M01 A3002 RMK A01 T00931006  RH  050%=      5-min Rain = 0
KTAS 180621Z 21009KT 09/M01 A3002 RMK A01 T00931006  RH  050%=      5-min Rain = 0
KTAS 180622Z 21009KT 09/M01 A3002 RMK A01 T00921006  RH  050%=      5-min Rain = 0
KTAS 180623Z 21009KT 09/M01 A3002 RMK A01 T00921006  RH  050%=      5-min Rain = 0
KTAS 180624Z 20009KT 09/M01 A3002 RMK A01 T00921006  RH  050%=      5-min Rain = 0
KTAS 180625Z 20008KT 09/M01 A3002 RMK A01 T00921006  RH  050%=      5-min Rain = 0
KTAS 180626Z 20008KT 09/M01 A3002 RMK A01 T00921006  RH  050%=      5-min Rain = 0
KTAS 180627Z 21010KT 09/M01 A3002 RMK A01 T00911006  RH  051%=      5-min Rain = 0
KTAS 180628Z 21009KT 09/M01 A3002 RMK A01 T00921005  RH  051%=      5-min Rain = 0
KTAS 180629Z 21009KT 09/M01 A3002 RMK A01 T00931005  RH  050%=      5-min Rain = 0
KTAS 180630Z 20009KT 09/M01 A3002 RMK A01 T00931006  RH  050%=      5-min Rain = 0
KTAS 180631Z 21009KT 09/M01 A3002 RMK A01 T00931006  RH  050%=      5-min Rain = 0
KTAS 180632Z 20010KT 09/M01 A3002 RMK A01 T00931006  RH  050%=      5-min Rain = 0
KTAS 180633Z 20009KT 09/M01 A3002 RMK A01 T00931006  RH  050%=      5-min Rain = 0
KTAS 180634Z 21009KT 09/M01 A3002 RMK A01 T00921006  RH  050%=      5-min Rain = 0
KTAS 180635Z 21009KT 09/M01 A3002 RMK A01 T00911006  RH  051%=      5-min Rain = 0
KTAS 180636Z 21009KT 09/M01 A3002 RMK A01 T00901006  RH  051%=      5-min Rain = 0
KTAS 180637Z 21009KT 09/M01 A3002 RMK A01 T00901006  RH  051%=      5-min Rain = 0
KTAS 180638Z 21010KT 09/M01 A3002 RMK A01 T00901006  RH  051%=      5-min Rain = 0
KTAS 180639Z 21009KT 09/M01 A3002 RMK A01 T00901006  RH  051%=      5-min Rain = 0
KTAS 180640Z 21009KT 09/M01 A3002 RMK A01 T00891006  RH  051%=      5-min Rain = 0
KTAS 180641Z 21010KT 09/M01 A3002 RMK A01 T00881006  RH  052%=      5-min Rain = 0
KTAS 180642Z 21009KT 09/M01 A3002 RMK A01 T00881006  RH  052%=      5-min Rain = 0
KTAS 180643Z 21009KT 09/M01 A3002 RMK A01 T00871006  RH  052%=      5-min Rain = 0
KTAS 180644Z 21009KT 09/M01 A3002 RMK A01 T00851007  RH  052%=      5-min Rain = 0
KTAS 180645Z 21009KT 08/M01 A3002 RMK A01 T00831007  RH  053%=      5-min Rain = 0
KTAS 180646Z 21008KT 08/M01 A3002 RMK A01 T00831006  RH  053%=      5-min Rain = 0
KTAS 180647Z 21008KT 08/M01 A3001 RMK A01 T00831006  RH  054%=      5-min Rain = 0
KTAS 180648Z 21008KT 08/M01 A3001 RMK A01 T00821006  RH  054%=      5-min Rain = 0
KTAS 180649Z 21009KT 08/M01 A3001 RMK A01 T00821006  RH  054%=      5-min Rain = 0
KTAS 180650Z 21009KT 08/M01 A3001 RMK A01 T00811006  RH  054%=      5-min Rain = 0
KTAS 180651Z 21009KT 08/M01 A3001 RMK A01 T00811005  RH  054%=      5-min Rain = 0
KTAS 180652Z 21009KT 08/M01 A3001 RMK A01 T00811005  RH  055%=      5-min Rain = 0
KTAS 180653Z 21009KT 08/M01 A3001 RMK A01 T00811005  RH  055%=      5-min Rain = 0
KTAS 180654Z 21009KT 08/M00 A3001 RMK A01 T00811004  RH  055%=      5-min Rain = 0
KTAS 180655Z 21009KT 08/M00 A3001 RMK A01 T00811004  RH  055%=      5-min Rain = 0
KTAS 180656Z 21009KT 08/M00 A3001 RMK A01 T00811004  RH  055%=      5-min Rain = 0
KTAS 180657Z 21009KT 08/M00 A3001 RMK A01 T00821003  RH  055%=      5-min Rain = 0
KTAS 180658Z 21009KT 08/M00 A3001 RMK A01 T00821003  RH  055%=      5-min Rain = 0
KTAS 180659Z 21009KT 08/M00 A3001 RMK A01 T00811003  RH  055%=      5-min Rain = 0
KTAS 180700Z 21009KT 08/M00 A3001 RMK A01 T00811002  RH  056%=      5-min Rain = 0
KTAS 180701Z 21008KT 08/M00 A3001 RMK A01 T00811003  RH  056%=      5-min Rain = 0
KTAS 180702Z 21008KT 08/M00 A30 RMK A01 T00801003  RH  056%=      5-min Rain = 0
KTAS 180703Z 21008KT 08/M00 A30 RMK A01 T00791002  RH  056%=      5-min Rain = 0
KTAS 180704Z 20009KT 08/M00 A30 RMK A01 T00801002  RH  056%=      5-min Rain = 0
KTAS 180705Z 21009KT 08/M00 A30 RMK A01 T00801001  RH  056%=      5-min Rain = 0
KTAS 180706Z 21009KT 08/M00 A30 RMK A01 T00801001  RH  057%=      5-min Rain = 0
KTAS 180707Z 21009KT 08/00 A30 RMK A01 T00800000  RH  057%=      5-min Rain = 0
KTAS 180708Z 20010KT 08/00 A30 RMK A01 T00820001  RH  056%=      5-min Rain = 0
KTAS 180709Z 20009KT 08/00 A30 RMK A01 T00830001  RH  056%=      5-min Rain = 0
KTAS 180710Z 20009KT 08/00 A30 RMK A01 T00840002  RH  056%=      5-min Rain = 0
KTAS 180711Z 20009KT 08/00 A30 RMK A01 T00840002  RH  056%=      5-min Rain = 0
KTAS 180712Z 20010KT 09/00 A30 RMK A01 T00850002  RH  056%=      5-min Rain = 0
KTAS 180713Z 20011KT 09/00 A30 RMK A01 T00850002  RH  056%=      5-min Rain = 0
KTAS 180714Z 20011KT 09/00 A30 RMK A01 T00850003  RH  056%=      5-min Rain = 0
KTAS 180715Z 20010KT 09/00 A30 RMK A01 T00850003  RH  056%=      5-min Rain = 0
KTAS 180716Z 20010KT 08/00 A2999 RMK A01 T00840002  RH  056%=      5-min Rain = 0
KTAS 180717Z 20010KT 08/00 A2999 RMK A01 T00830002  RH  057%=      5-min Rain = 0
KTAS 180718Z 20009KT 08/00 A2999 RMK A01 T00830002  RH  057%=      5-min Rain = 0
KTAS 180719Z 20009KT 08/00 A2999 RMK A01 T00820002  RH  057%=      5-min Rain = 0
KTAS 180720Z 20009KT 08/00 A2999 RMK A01 T00820002  RH  057%=      5-min Rain = 0
KTAS 180721Z 20009KT 08/00 A2999 RMK A01 T00820002  RH  057%=      5-min Rain = 0
KTAS 180722Z 20009KT 08/00 A2999 RMK A01 T00810002  RH  057%=      5-min Rain = 0
KTAS 180723Z 20009KT 08/00 A2999 RMK A01 T00810003  RH  058%=      5-min Rain = 0
KTAS 180724Z 20010KT 08/00 A2999 RMK A01 T00810003  RH  058%=      5-min Rain = 0
KTAS 180725Z 20010KT 08/00 A2999 RMK A01 T00820003  RH  058%=      5-min Rain = 0
KTAS 180726Z 20010KT 08/00 A2999 RMK A01 T00810003  RH  058%=      5-min Rain = 0
KTAS 180727Z 20009KT 08/00 A2999 RMK A01 T00820003  RH  058%=      5-min Rain = 0
KTAS 180728Z 20009KT 08/00 A2999 RMK A01 T00810003  RH  058%=      5-min Rain = 0
KTAS 180729Z 20010KT 08/00 A2999 RMK A01 T00800003  RH  058%=      5-min Rain = 0
KTAS 180730Z 20009KT 08/00 A2999 RMK A01 T00800003  RH  058%=      5-min Rain = 0
KTAS 180731Z 20010KT 08/00 A2999 RMK A01 T00800003  RH  058%=      5-min Rain = 0
KTAS 180732Z 20009KT 08/00 A2999 RMK A01 T00800003  RH  058%=      5-min Rain = 0
KTAS 180733Z 20009KT 08/00 A2999 RMK A01 T00790003  RH  058%=      5-min Rain = 0
KTAS 180734Z 20009KT 08/00 A2999 RMK A01 T00790003  RH  058%=      5-min Rain = 0
KTAS 180735Z 20010KT 08/00 A2999 RMK A01 T00790003  RH  059%=      5-min Rain = 0
KTAS 180736Z 20010KT 08/00 A2998 RMK A01 T00790003  RH  059%=      5-min Rain = 0
KTAS 180737Z 20009KT 08/00 A2999 RMK A01 T00790003  RH  059%=      5-min Rain = 0
KTAS 180738Z 20010KT 08/00 A2999 RMK A01 T00790004  RH  059%=      5-min Rain = 0
KTAS 180739Z 20009KT 08/01 A2999 RMK A01 T00800005  RH  059%=      5-min Rain = 0
KTAS 180740Z 20009KT 08/00 A2999 RMK A01 T00790004  RH  059%=      5-min Rain = 0
KTAS 180741Z 20010KT 08/00 A2999 RMK A01 T00780004  RH  059%=      5-min Rain = 0
KTAS 180742Z 20010KT 08/00 A2998 RMK A01 T00780004  RH  059%=      5-min Rain = 0
KTAS 180743Z 20009KT 08/00 A2998 RMK A01 T00790004  RH  059%=      5-min Rain = 0
KTAS 180744Z 20009KT 08/00 A2998 RMK A01 T00780004  RH  059%=      5-min Rain = 0
KTAS 180745Z 20010KT 08/00 A2998 RMK A01 T00780004  RH  060%=      5-min Rain = 0
KTAS 180746Z 20009KT 08/01 A2998 RMK A01 T00790005  RH  060%=      5-min Rain = 0
KTAS 180747Z 20009KT 08/01 A2998 RMK A01 T00790005  RH  060%=      5-min Rain = 0
KTAS 180748Z 20009KT 08/01 A2998 RMK A01 T00780005  RH  060%=      5-min Rain = 0
KTAS 180749Z 20010KT 08/01 A2998 RMK A01 T00780005  RH  060%=      5-min Rain = 0
KTAS 180750Z 20009KT 08/01 A2998 RMK A01 T00780005  RH  060%=      5-min Rain = 0
KTAS 180751Z 20010KT 08/01 A2998 RMK A01 T00780006  RH  060%=      5-min Rain = 0
KTAS 180752Z 20009KT 08/01 A2998 RMK A01 T00780005  RH  060%=      5-min Rain = 0
KTAS 180753Z 20011KT 08/01 A2998 RMK A01 T00780006  RH  060%=      5-min Rain = 0
KTAS 180754Z 21010KT 08/01 A2998 RMK A01 T00790007  RH  060%=      5-min Rain = 0
KTAS 180755Z 20010KT 08/01 A2998 RMK A01 T00800007  RH  060%=      5-min Rain = 0
KTAS 180756Z 20010KT 08/01 A2998 RMK A01 T00810008  RH  060%=      5-min Rain = 0
KTAS 180757Z 20011KT 08/01 A2998 RMK A01 T00810008  RH  060%=      5-min Rain = 0
KTAS 180758Z 20011KT 08/01 A2998 RMK A01 T00820008  RH  060%=      5-min Rain = 0
KTAS 180759Z 20010KT 08/01 A2998 RMK A01 T00820008  RH  060%=      5-min Rain = 0
KTAS 180800Z 20011KT 08/01 A2998 RMK A01 T00810008  RH  060%=      5-min Rain = 0
KTAS 180801Z 20011KT 08/01 A2998 RMK A01 T00820008  RH  060%=      5-min Rain = 0
KTAS 180802Z 20011KT 08/01 A2998 RMK A01 T00820009  RH  060%=      5-min Rain = 0
KTAS 180803Z 20011KT 08/01 A2997 RMK A01 T00820008  RH  060%=      5-min Rain = 0
KTAS 180804Z 20011KT 08/01 A2997 RMK A01 T00810008  RH  060%=      5-min Rain = 0
KTAS 180805Z 20011KT 08/01 A2997 RMK A01 T00810009  RH  060%=      5-min Rain = 0
KTAS 180806Z 20010KT 08/01 A2997 RMK A01 T00810009  RH  060%=      5-min Rain = 0
KTAS 180807Z 20012KT 08/01 A2997 RMK A01 T00810009  RH  061%=      5-min Rain = 0
KTAS 180808Z 20011KT 08/01 A2997 RMK A01 T00820010  RH  060%=      5-min Rain = 0
KTAS 180809Z 21012KT 08/01 A2997 RMK A01 T00830011  RH  061%=      5-min Rain = 0
KTAS 180810Z 20012KT 08/01 A2997 RMK A01 T00840012  RH  060%=      5-min Rain = 0
KTAS 180811Z 20010KT 08/01 A2997 RMK A01 T00840011  RH  060%=      5-min Rain = 0
KTAS 180812Z 20011KT 08/01 A2997 RMK A01 T00840012  RH  060%=      5-min Rain = 0
KTAS 180813Z 20011KT 08/01 A2997 RMK A01 T00840012  RH  060%=      5-min Rain = 0
KTAS 180814Z 21011KT 08/01 A2997 RMK A01 T00840012  RH  060%=      5-min Rain = 0
KTAS 180815Z 21011KT 08/01 A2997 RMK A01 T00830011  RH  061%=      5-min Rain = 0
KTAS 180816Z 20011KT 08/01 A2997 RMK A01 T00830012  RH  061%=      5-min Rain = 0
KTAS 180817Z 21011KT 08/01 A2997 RMK A01 T00830012  RH  061%=      5-min Rain = 0
KTAS 180818Z 21012KT 08/01 A2997 RMK A01 T00830012  RH  061%=      5-min Rain = 0
KTAS 180819Z 21012KT 08/01 A2997 RMK A01 T00830012  RH  061%=      5-min Rain = 0
KTAS 180820Z 21011KT 08/01 A2997 RMK A01 T00830012  RH  061%=      5-min Rain = 0
KTAS 180821Z 21011KT 08/01 A2997 RMK A01 T00820011  RH  061%=      5-min Rain = 0
KTAS 180822Z 21012KT 08/01 A2997 RMK A01 T00810010  RH  061%=      5-min Rain = 0
KTAS 180823Z 21012KT 08/01 A2997 RMK A01 T00800011  RH  061%=      5-min Rain = 0
KTAS 180824Z 21011KT 08/01 A2997 RMK A01 T00810011  RH  061%=      5-min Rain = 0
KTAS 180825Z 21011KT 08/01 A2997 RMK A01 T00800010  RH  061%=      5-min Rain = 0
KTAS 180826Z 21012KT 08/01 A2997 RMK A01 T00790010  RH  062%=      5-min Rain = 0
KTAS 180827Z 21011KT 08/01 A2997 RMK A01 T00790010  RH  062%=      5-min Rain = 0
KTAS 180828Z 21012KT 08/01 A2997 RMK A01 T00780010  RH  062%=      5-min Rain = 0
KTAS 180829Z 21011KT 08/01 A2996 RMK A01 T00780010  RH  062%=      5-min Rain = 0
KTAS 180830Z 21012KT 08/01 A2996 RMK A01 T00780010  RH  062%=      5-min Rain = 0
KTAS 180831Z 21012KT 08/01 A2996 RMK A01 T00780010  RH  062%=      5-min Rain = 0
KTAS 180832Z 21012KT 08/01 A2996 RMK A01 T00780010  RH  062%=      5-min Rain = 0
KTAS 180833Z 21013KT 08/01 A2996 RMK A01 T00770009  RH  062%=      5-min Rain = 0
KTAS 180834Z 21012KT 08/01 A2996 RMK A01 T00770010  RH  062%=      5-min Rain = 0
KTAS 180835Z 21013KT 08/01 A2996 RMK A01 T00760009  RH  062%=      5-min Rain = 0
KTAS 180836Z 21013KT 08/01 A2996 RMK A01 T00750009  RH  063%=      5-min Rain = 0
KTAS 180837Z 21012KT 07/01 A2996 RMK A01 T00740008  RH  063%=      5-min Rain = 0
KTAS 180838Z 21012KT 07/01 A2996 RMK A01 T00740008  RH  063%=      5-min Rain = 0
KTAS 180839Z 21012KT 07/01 A2996 RMK A01 T00730007  RH  063%=      5-min Rain = 0
KTAS 180840Z 21012KT 07/01 A2996 RMK A01 T00720008  RH  064%=      5-min Rain = 0
KTAS 180841Z 21012KT 07/01 A2996 RMK A01 T00720007  RH  064%=      5-min Rain = 0
KTAS 180842Z 21011KT 07/01 A2996 RMK A01 T00710007  RH  064%=      5-min Rain = 0
KTAS 180843Z 21011KT 07/01 A2996 RMK A01 T00700007  RH  064%=      5-min Rain = 0
KTAS 180844Z 21012KT 07/01 A2996 RMK A01 T00700007  RH  064%=      5-min Rain = 0
KTAS 180845Z 21011KT 07/01 A2996 RMK A01 T00690007  RH  065%=      5-min Rain = 0
KTAS 180846Z 21011KT 07/01 A2996 RMK A01 T00690007  RH  065%=      5-min Rain = 0
KTAS 180847Z 21011KT 07/01 A2996 RMK A01 T00680007  RH  065%=      5-min Rain = 0
KTAS 180848Z 21011KT 07/01 A2996 RMK A01 T00680007  RH  065%=      5-min Rain = 0
KTAS 180849Z 21011KT 07/01 A2996 RMK A01 T00680007  RH  065%=      5-min Rain = 0
KTAS 180850Z 21012KT 07/01 A2996 RMK A01 T00680008  RH  065%=      5-min Rain = 0
KTAS 180851Z 21012KT 07/01 A2995 RMK A01 T00690008  RH  065%=      5-min Rain = 0
KTAS 180852Z 20012KT 07/01 A2995 RMK A01 T00680007  RH  065%=      5-min Rain = 0
KTAS 180853Z 21011KT 07/01 A2995 RMK A01 T00680007  RH  065%=      5-min Rain = 0
KTAS 180854Z 21011KT 07/01 A2995 RMK A01 T00670007  RH  065%=      5-min Rain = 0
KTAS 180855Z 21012KT 07/01 A2995 RMK A01 T00660007  RH  066%=      5-min Rain = 0
KTAS 180856Z 21012KT 07/01 A2995 RMK A01 T00660007  RH  066%=      5-min Rain = 0
KTAS 180857Z 21011KT 07/01 A2995 RMK A01 T00660007  RH  066%=      5-min Rain = 0
KTAS 180858Z 21011KT 07/01 A2995 RMK A01 T00660007  RH  066%=      5-min Rain = 0
KTAS 180859Z 21010KT 07/01 A2995 RMK A01 T00660007  RH  066%=      5-min Rain = 0
KTAS 180900Z 21012KT 07/01 A2995 RMK A01 T00650007  RH  066%=      5-min Rain = 0
KTAS 180901Z 21010KT 07/01 A2995 RMK A01 T00660008  RH  066%=      5-min Rain = 0
KTAS 180902Z 21011KT 07/01 A2995 RMK A01 T00660008  RH  066%=      5-min Rain = 0
KTAS 180903Z 21010KT 07/01 A2995 RMK A01 T00650007  RH  066%=      5-min Rain = 0
KTAS 180904Z 21011KT 07/01 A2995 RMK A01 T00650008  RH  067%=      5-min Rain = 0
KTAS 180905Z 21011KT 07/01 A2995 RMK A01 T00650008  RH  067%=      5-min Rain = 0
KTAS 180906Z 21011KT 07/01 A2995 RMK A01 T00650008  RH  067%=      5-min Rain = 0
KTAS 180907Z 21010KT 07/01 A2995 RMK A01 T00650008  RH  067%=      5-min Rain = 0
KTAS 180908Z 21011KT 07/01 A2995 RMK A01 T00650008  RH  067%=      5-min Rain = 0
KTAS 180909Z 20010KT 07/01 A2995 RMK A01 T00650008  RH  067%=      5-min Rain = 0
KTAS 180910Z 20011KT 06/01 A2995 RMK A01 T00640007  RH  067%=      5-min Rain = 0
KTAS 180911Z 20011KT 06/01 A2995 RMK A01 T00640007  RH  067%=      5-min Rain = 0
KTAS 180912Z 21010KT 06/01 A2995 RMK A01 T00630007  RH  067%=      5-min Rain = 0
KTAS 180913Z 20011KT 06/01 A2995 RMK A01 T00630008  RH  068%=      5-min Rain = 0
KTAS 180914Z 20011KT 06/01 A2994 RMK A01 T00640009  RH  068%=      5-min Rain = 0
KTAS 180915Z 20011KT 07/01 A2994 RMK A01 T00650009  RH  067%=      5-min Rain = 0
KTAS 180916Z 21011KT 07/01 A2995 RMK A01 T00650009  RH  067%=      5-min Rain = 0
KTAS 180917Z 21012KT 07/01 A2995 RMK A01 T00660010  RH  067%=      5-min Rain = 0
KTAS 180918Z 21011KT 07/01 A2995 RMK A01 T00660009  RH  067%=      5-min Rain = 0
KTAS 180919Z 21013KT 07/01 A2995 RMK A01 T00660009  RH  067%=      5-min Rain = 0
KTAS 180920Z 21011KT 07/01 A2994 RMK A01 T00670010  RH  067%=      5-min Rain = 0
KTAS 180921Z 21011KT 07/01 A2994 RMK A01 T00670009  RH  067%=      5-min Rain = 0
KTAS 180922Z 21011KT 07/01 A2994 RMK A01 T00660009  RH  067%=      5-min Rain = 0
KTAS 180923Z 21012KT 07/01 A2994 RMK A01 T00660010  RH  067%=      5-min Rain = 0
KTAS 180924Z 21012KT 07/01 A2994 RMK A01 T00670010  RH  067%=      5-min Rain = 0
KTAS 180925Z 21012KT 07/01 A2994 RMK A01 T00670010  RH  067%=      5-min Rain = 0
KTAS 180926Z 21013KT 07/01 A2994 RMK A01 T00670010  RH  067%=      5-min Rain = 0
KTAS 180927Z 21011KT 07/01 A2994 RMK A01 T00670010  RH  067%=      5-min Rain = 0
KTAS 180928Z 21011KT 07/01 A2994 RMK A01 T00660010  RH  067%=      5-min Rain = 0
KTAS 180929Z 21013KT 07/01 A2994 RMK A01 T00660010  RH  067%=      5-min Rain = 0
KTAS 180930Z 21013KT 07/01 A2994 RMK A01 T00670011  RH  067%=      5-min Rain = 0
KTAS 180931Z 21013KT 07/01 A2994 RMK A01 T00670011  RH  067%=      5-min Rain = 0
KTAS 180932Z 21012KT 07/01 A2994 RMK A01 T00670010  RH  067%=      5-min Rain = 0
KTAS 180933Z 21012KT 07/01 A2994 RMK A01 T00660010  RH  067%=      5-min Rain = 0
KTAS 180934Z 21012KT 07/01 A2994 RMK A01 T00650009  RH  067%=      5-min Rain = 0
KTAS 180935Z 21011KT 07/01 A2994 RMK A01 T00650010  RH  068%=      5-min Rain = 0
KTAS 180936Z 21012KT 06/01 A2994 RMK A01 T00640009  RH  068%=      5-min Rain = 0
KTAS 180937Z 21011KT 06/01 A2994 RMK A01 T00640009  RH  068%=      5-min Rain = 0
KTAS 180938Z 21012KT 06/01 A2994 RMK A01 T00630009  RH  068%=      5-min Rain = 0
KTAS 180939Z 21013KT 06/01 A2994 RMK A01 T00630009  RH  069%=      5-min Rain = 0
KTAS 180940Z 21013KT 06/01 A2994 RMK A01 T00630010  RH  069%=      5-min Rain = 0
KTAS 180941Z 21012KT 06/01 A2994 RMK A01 T00630010  RH  069%=      5-min Rain = 0
KTAS 180942Z 21011KT 06/01 A2994 RMK A01 T00630009  RH  069%=      5-min Rain = 0
KTAS 180943Z 21012KT 06/01 A2994 RMK A01 T00620009  RH  069%=      5-min Rain = 0
KTAS 180944Z 21011KT 06/01 A2994 RMK A01 T00620009  RH  069%=      5-min Rain = 0
KTAS 180945Z 21011KT 06/01 A2994 RMK A01 T00610009  RH  069%=      5-min Rain = 0
KTAS 180946Z 21013KT 06/01 A2994 RMK A01 T00610009  RH  069%=      5-min Rain = 0
KTAS 180947Z 21011KT 06/01 A2994 RMK A01 T00610010  RH  070%=      5-min Rain = 0
KTAS 180948Z 21012KT 06/01 A2994 RMK A01 T00610009  RH  070%=      5-min Rain = 0
KTAS 180949Z 21012KT 06/01 A2994 RMK A01 T00600009  RH  070%=      5-min Rain = 0
KTAS 180950Z 21012KT 06/01 A2993 RMK A01 T00600010  RH  070%=      5-min Rain = 0
KTAS 180951Z 20011KT 06/01 A2993 RMK A01 T00600009  RH  070%=      5-min Rain = 0
KTAS 180952Z 21011KT 06/01 A2993 RMK A01 T00590009  RH  070%=      5-min Rain = 0
KTAS 180953Z 21012KT 06/01 A2993 RMK A01 T00590008  RH  070%=      5-min Rain = 0
KTAS 180954Z 21012KT 06/01 A2993 RMK A01 T00590009  RH  070%=      5-min Rain = 0
KTAS 180955Z 21011KT 06/01 A2993 RMK A01 T00600010  RH  070%=      5-min Rain = 0
KTAS 180956Z 21011KT 06/01 A2993 RMK A01 T00590009  RH  070%=      5-min Rain = 0
KTAS 180957Z 21011KT 06/01 A2993 RMK A01 T00590009  RH  070%=      5-min Rain = 0
KTAS 180958Z 21012KT 06/01 A2993 RMK A01 T00580009  RH  071%=      5-min Rain = 0
KTAS 180959Z 21012KT 06/01 A2993 RMK A01 T00590009  RH  071%=      5-min Rain = 0
KTAS 181000Z 20011KT 06/01 A2993 RMK A01 T00590009  RH  071%=      5-min Rain = 0
KTAS 181001Z 20012KT 06/01 A2993 RMK A01 T00580009  RH  071%=      5-min Rain = 0
KTAS 181002Z 20011KT 06/01 A2993 RMK A01 T00580009  RH  071%=      5-min Rain = 0
KTAS 181003Z 20013KT 06/01 A2993 RMK A01 T00580009  RH  071%=      5-min Rain = 0
KTAS 181004Z 20012KT 06/01 A2993 RMK A01 T00580009  RH  071%=      5-min Rain = 0
KTAS 181005Z 21011KT 06/01 A2993 RMK A01 T00580009  RH  071%=      5-min Rain = 0
KTAS 181006Z 21013KT 06/01 A2993 RMK A01 T00570009  RH  071%=      5-min Rain = 0
KTAS 181007Z 21011KT 06/01 A2993 RMK A01 T00570009  RH  071%=      5-min Rain = 0
KTAS 181008Z 21013KT 06/01 A2993 RMK A01 T00570009  RH  071%=      5-min Rain = 0
KTAS 181009Z 21013KT 06/01 A2993 RMK A01 T00570010  RH  072%=      5-min Rain = 0
KTAS 181010Z 21012KT 06/01 A2992 RMK A01 T00570010  RH  072%=      5-min Rain = 0
KTAS 181011Z 21012KT 06/01 A2992 RMK A01 T00570010  RH  072%=      5-min Rain = 0
KTAS 181012Z 21011KT 06/01 A2992 RMK A01 T00570009  RH  072%=      5-min Rain = 0
KTAS 181013Z 20012KT 06/01 A2992 RMK A01 T00560009  RH  072%=      5-min Rain = 0
KTAS 181014Z 20012KT 06/01 A2992 RMK A01 T00560010  RH  072%=      5-min Rain = 0
KTAS 181015Z 20013KT 06/01 A2992 RMK A01 T00560009  RH  072%=      5-min Rain = 0
KTAS 181016Z 20012KT 06/01 A2992 RMK A01 T00560009  RH  072%=      5-min Rain = 0
KTAS 181017Z 20011KT 06/01 A2992 RMK A01 T00550009  RH  072%=      5-min Rain = 0
KTAS 181018Z 20011KT 05/01 A2992 RMK A01 T00540008  RH  072%=      5-min Rain = 0
KTAS 181019Z 20012KT 05/01 A2992 RMK A01 T00540008  RH  073%=      5-min Rain = 0
KTAS 181020Z 20011KT 05/01 A2992 RMK A01 T00530008  RH  073%=      5-min Rain = 0
KTAS 181021Z 21011KT 05/01 A2992 RMK A01 T00530009  RH  073%=      5-min Rain = 0
KTAS 181022Z 20012KT 05/01 A2992 RMK A01 T00530009  RH  073%=      5-min Rain = 0
KTAS 181023Z 21010KT 05/01 A2992 RMK A01 T00530009  RH  073%=      5-min Rain = 0
KTAS 181024Z 20012KT 05/01 A2992 RMK A01 T00530009  RH  073%=      5-min Rain = 0
KTAS 181025Z 21011KT 05/01 A2992 RMK A01 T00530010  RH  073%=      5-min Rain = 0
KTAS 181026Z 21012KT 05/01 A2992 RMK A01 T00530010  RH  073%=      5-min Rain = 0
KTAS 181027Z 21012KT 05/01 A2992 RMK A01 T00540010  RH  073%=      5-min Rain = 0
KTAS 181028Z 21013KT 05/01 A2992 RMK A01 T00540010  RH  073%=      5-min Rain = 0
KTAS 181029Z 21011KT 05/01 A2991 RMK A01 T00540010  RH  073%=      5-min Rain = 0
KTAS 181030Z 21012KT 05/01 A2991 RMK A01 T00540010  RH  073%=      5-min Rain = 0
KTAS 181031Z 21012KT 05/01 A2991 RMK A01 T00540010  RH  073%=      5-min Rain = 0
KTAS 181032Z 21012KT 05/01 A2991 RMK A01 T00540010  RH  073%=      5-min Rain = 0
KTAS 181033Z 21012KT 05/01 A2991 RMK A01 T00540010  RH  073%=      5-min Rain = 0
KTAS 181034Z 21012KT 05/01 A2991 RMK A01 T00540010  RH  073%=      5-min Rain = 0
KTAS 181035Z 21012KT 05/01 A2991 RMK A01 T00540010  RH  073%=      5-min Rain = 0
KTAS 181036Z 21012KT 05/01 A2991 RMK A01 T00540010  RH  073%=      5-min Rain = 0
KTAS 181037Z 20012KT 05/01 A2991 RMK A01 T00540010  RH  073%=      5-min Rain = 0
KTAS 181038Z 21011KT 05/01 A2991 RMK A01 T00540010  RH  073%=      5-min Rain = 0
KTAS 181039Z 21011KT 05/01 A2991 RMK A01 T00540010  RH  073%=      5-min Rain = 0
KTAS 181040Z 21010KT 05/01 A2991 RMK A01 T00530009  RH  073%=      5-min Rain = 0
KTAS 181041Z 21011KT 05/01 A2991 RMK A01 T00520009  RH  073%=      5-min Rain = 0
KTAS 181042Z 21010KT 05/01 A2991 RMK A01 T00520009  RH  074%=      5-min Rain = 0
KTAS 181043Z 21009KT 05/01 A2991 RMK A01 T00520009  RH  074%=      5-min Rain = 0
KTAS 181044Z 21009KT 05/01 A2991 RMK A01 T00510008  RH  074%=      5-min Rain = 0
KTAS 181045Z 22010KT 05/01 A2991 RMK A01 T00510009  RH  074%=      5-min Rain = 0
KTAS 181046Z 22010KT 05/01 A2991 RMK A01 T00500009  RH  074%=      5-min Rain = 0
KTAS 181047Z 22009KT 05/01 A2991 RMK A01 T00500009  RH  075%=      5-min Rain = 0
KTAS 181048Z 21010KT 05/01 A2991 RMK A01 T00500008  RH  075%=      5-min Rain = 0
KTAS 181049Z 21010KT 05/01 A2991 RMK A01 T00480007  RH  075%=      5-min Rain = 0
KTAS 181050Z 21010KT 05/01 A2991 RMK A01 T00480008  RH  075%=      5-min Rain = 0
KTAS 181051Z 21011KT 05/01 A2991 RMK A01 T00480009  RH  075%=      5-min Rain = 0
KTAS 181052Z 21011KT 05/01 A2991 RMK A01 T00490009  RH  076%=      5-min Rain = 0
KTAS 181053Z 21011KT 05/01 A2991 RMK A01 T00500010  RH  075%=      5-min Rain = 0
KTAS 181054Z 21009KT 05/01 A2991 RMK A01 T00500009  RH  075%=      5-min Rain = 0
KTAS 181055Z 22009KT 05/01 A2991 RMK A01 T00490009  RH  075%=      5-min Rain = 0
KTAS 181056Z 22008KT 05/01 A2991 RMK A01 T00480008  RH  075%=      5-min Rain = 0
KTAS 181057Z 22008KT 05/01 A2991 RMK A01 T00470007  RH  075%=      5-min Rain = 0
KTAS 181058Z 21008KT 05/01 A2991 RMK A01 T00460007  RH  076%=      5-min Rain = 0
KTAS 181059Z 21008KT 05/01 A2991 RMK A01 T00460007  RH  076%=      5-min Rain = 0
KTAS 181100Z 22008KT 05/01 A2991 RMK A01 T00450007  RH  076%=      5-min Rain = 0
KTAS 181101Z 22008KT 05/01 A2991 RMK A01 T00450006  RH  076%=      5-min Rain = 0
KTAS 181102Z 22007KT 05/01 A2991 RMK A01 T00450006  RH  076%=      5-min Rain = 0
KTAS 181103Z 22007KT 04/01 A2991 RMK A01 T00440005  RH  076%=      5-min Rain = 0
KTAS 181104Z 22007KT 04/01 A2991 RMK A01 T00430005  RH  076%=      5-min Rain = 0
KTAS 181105Z 23006KT 04/01 A2991 RMK A01 T00420005  RH  077%=      5-min Rain = 0
KTAS 181106Z 23006KT 04/01 A2991 RMK A01 T00420005  RH  077%=      5-min Rain = 0
KTAS 181107Z 23006KT 04/01 A2991 RMK A01 T00420005  RH  077%=      5-min Rain = 0
KTAS 181108Z 23007KT 04/00 A2991 RMK A01 T00410004  RH  077%=      5-min Rain = 0
KTAS 181109Z 23007KT 04/00 A2991 RMK A01 T00400004  RH  077%=      5-min Rain = 0
KTAS 181110Z 23007KT 04/00 A299 RMK A01 T00410004  RH  077%=      5-min Rain = 0
KTAS 181111Z 23006KT 04/00 A299 RMK A01 T00400004  RH  077%=      5-min Rain = 0
KTAS 181112Z 21007KT 04/00 A299 RMK A01 T00390003  RH  077%=      5-min Rain = 0
KTAS 181113Z 21007KT 04/00 A299 RMK A01 T00370001  RH  077%=      5-min Rain = 0
KTAS 181114Z 21007KT 04/00 A299 RMK A01 T00370001  RH  077%=      5-min Rain = 0
KTAS 181115Z 21007KT 04/00 A299 RMK A01 T00370001  RH  078%=      5-min Rain = 0
KTAS 181116Z 21007KT 04/00 A299 RMK A01 T00360001  RH  078%=      5-min Rain = 0
KTAS 181117Z 22006KT 04/00 A299 RMK A01 T00360002  RH  078%=      5-min Rain = 0
KTAS 181118Z 22006KT 04/00 A299 RMK A01 T00370003  RH  078%=      5-min Rain = 0
KTAS 181119Z 22006KT 04/00 A2989 RMK A01 T00380003  RH  078%=      5-min Rain = 0
KTAS 181120Z 23006KT 04/00 A2989 RMK A01 T00380003  RH  078%=      5-min Rain = 0
KTAS 181121Z 23006KT 04/00 A2989 RMK A01 T00380003  RH  078%=      5-min Rain = 0
KTAS 181122Z 23006KT 04/00 A2989 RMK A01 T00370002  RH  078%=      5-min Rain = 0
KTAS 181123Z 23006KT 04/00 A2989 RMK A01 T00360001  RH  078%=      5-min Rain = 0
KTAS 181124Z 22006KT 04/00 A2989 RMK A01 T00360001  RH  078%=      5-min Rain = 0
KTAS 181125Z 22006KT 04/00 A2989 RMK A01 T00360002  RH  078%=      5-min Rain = 0
KTAS 181126Z 22006KT 04/00 A2989 RMK A01 T00360002  RH  078%=      5-min Rain = 0
KTAS 181127Z 22007KT 04/00 A2989 RMK A01 T00370002  RH  078%=      5-min Rain = 0
KTAS 181128Z 22007KT 04/00 A2989 RMK A01 T00380003  RH  078%=      5-min Rain = 0
KTAS 181129Z 22007KT 04/00 A2989 RMK A01 T00380004  RH  078%=      5-min Rain = 0
KTAS 181130Z 22007KT 04/00 A2989 RMK A01 T00390004  RH  078%=      5-min Rain = 0
KTAS 181131Z 22008KT 04/00 A2989 RMK A01 T00390004  RH  078%=      5-min Rain = 0
KTAS 181132Z 22008KT 04/01 A2988 RMK A01 T00390005  RH  078%=      5-min Rain = 0
KTAS 181133Z 22008KT 04/01 A2988 RMK A01 T00400005  RH  078%=      5-min Rain = 0
KTAS 181134Z 21008KT 04/01 A2988 RMK A01 T00410006  RH  078%=      5-min Rain = 0
KTAS 181135Z 21007KT 04/01 A2988 RMK A01 T00420006  RH  077%=      5-min Rain = 0
KTAS 181136Z 21007KT 04/01 A2988 RMK A01 T00420005  RH  077%=      5-min Rain = 0
KTAS 181137Z 22007KT 04/01 A2988 RMK A01 T00420005  RH  077%=      5-min Rain = 0
KTAS 181138Z 21007KT 04/01 A2988 RMK A01 T00420005  RH  077%=      5-min Rain = 0
KTAS 181139Z 22007KT 04/01 A2988 RMK A01 T00420005  RH  077%=      5-min Rain = 0
KTAS 181140Z 22007KT 04/00 A2988 RMK A01 T00420004  RH  077%=      5-min Rain = 0
KTAS 181141Z 22006KT 04/00 A2988 RMK A01 T00410004  RH  077%=      5-min Rain = 0
KTAS 181142Z 22006KT 04/00 A2988 RMK A01 T00400003  RH  077%=      5-min Rain = 0
KTAS 181143Z 22007KT 04/00 A2987 RMK A01 T00400003  RH  077%=      5-min Rain = 0
KTAS 181144Z 22008KT 04/00 A2987 RMK A01 T00400004  RH  077%=      5-min Rain = 0
KTAS 181145Z 22007KT 04/00 A2987 RMK A01 T00410004  RH  077%=      5-min Rain = 0
KTAS 181146Z 21007KT 04/00 A2987 RMK A01 T00410003  RH  077%=      5-min Rain = 0
KTAS 181147Z 21007KT 04/00 A2987 RMK A01 T00400003  RH  077%=      5-min Rain = 0
KTAS 181148Z 21008KT 04/00 A2987 RMK A01 T00400003  RH  077%=      5-min Rain = 0
KTAS 181149Z 21008KT 04/00 A2987 RMK A01 T00400003  RH  077%=      5-min Rain = 0
KTAS 181150Z 22007KT 04/00 A2987 RMK A01 T00410004  RH  077%=      5-min Rain = 0
KTAS 181151Z 22007KT 04/00 A2987 RMK A01 T00410003  RH  077%=      5-min Rain = 0
KTAS 181152Z 21007KT 04/00 A2987 RMK A01 T00410004  RH  076%=      5-min Rain = 0
KTAS 181153Z 22007KT 04/00 A2987 RMK A01 T00410003  RH  076%=      5-min Rain = 0
KTAS 181154Z 22007KT 04/00 A2987 RMK A01 T00400002  RH  076%=      5-min Rain = 0
KTAS 181155Z 22007KT 04/00 A2987 RMK A01 T00390001  RH  076%=      5-min Rain = 0
KTAS 181156Z 22007KT 04/00 A2987 RMK A01 T00380001  RH  077%=      5-min Rain = 0
KTAS 181157Z 22008KT 04/00 A2987 RMK A01 T00380001  RH  077%=      5-min Rain = 0
KTAS 181158Z 22008KT 04/00 A2987 RMK A01 T00380001  RH  077%=      5-min Rain = 0
KTAS 181159Z 23007KT 04/00 A2987 RMK A01 T00380002  RH  077%=      5-min Rain = 0
KTAS 181200Z 23007KT 04/00 A2987 RMK A01 T00380002  RH  077%=      5-min Rain = 0
KTAS 181201Z 23007KT 04/00 A2987 RMK A01 T00380002  RH  077%=      5-min Rain = 0
KTAS 181202Z 23006KT 04/00 A2987 RMK A01 T00380002  RH  077%=      5-min Rain = 0
KTAS 181203Z 23006KT 04/00 A2987 RMK A01 T00380001  RH  077%=      5-min Rain = 0
KTAS 181204Z 23006KT 04/00 A2987 RMK A01 T00380001  RH  077%=      5-min Rain = 0
KTAS 181205Z 24007KT 04/00 A2987 RMK A01 T00380001  RH  077%=      5-min Rain = 0
KTAS 181206Z 23006KT 04/00 A2987 RMK A01 T00370000  RH  077%=      5-min Rain = 0
KTAS 181207Z 24007KT 04/00 A2987 RMK A01 T00370000  RH  077%=      5-min Rain = 0
KTAS 181208Z 24007KT 04/00 A2987 RMK A01 T00370000  RH  077%=      5-min Rain = 0
KTAS 181209Z 23007KT 04/00 A2987 RMK A01 T003700-0  RH  077%=      5-min Rain = 0
KTAS 181210Z 23007KT 04/00 A2987 RMK A01 T00370000  RH  077%=      5-min Rain = 0
KTAS 181211Z 23007KT 04/00 A2987 RMK A01 T00370000  RH  077%=      5-min Rain = 0
KTAS 181212Z 23007KT 04/00 A2986 RMK A01 T00380000  RH  077%=      5-min Rain = 0
KTAS 181213Z 23008KT 04/00 A2986 RMK A01 T00370000  RH  077%=      5-min Rain = 0
KTAS 181214Z 23007KT 04/00 A2987 RMK A01 T00370000  RH  077%=      5-min Rain = 0
KTAS 181215Z 23007KT 04/00 A2987 RMK A01 T00370000  RH  077%=      5-min Rain = 0
KTAS 181216Z 23008KT 04/00 A2987 RMK A01 T00370000  RH  077%=      5-min Rain = 0
KTAS 181217Z 23008KT 04/00 A2987 RMK A01 T00370000  RH  077%=      5-min Rain = 0
KTAS 181218Z 23008KT 04/00 A2987 RMK A01 T00370000  RH  077%=      5-min Rain = 0
KTAS 181219Z 24008KT 04/00 A2987 RMK A01 T003600-0  RH  077%=      5-min Rain = 0
KTAS 181220Z 24007KT 04/00 A2987 RMK A01 T003600-0  RH  077%=      5-min Rain = 0
KTAS 181221Z 25007KT 04/M00 A2987 RMK A01 T00361001  RH  077%=      5-min Rain = 0
KTAS 181222Z 24006KT 04/M00 A2987 RMK A01 T00351001  RH  077%=      5-min Rain = 0
KTAS 181223Z 25006KT 04/M00 A2986 RMK A01 T00351001  RH  077%=      5-min Rain = 0
KTAS 181224Z 24006KT 03/M00 A2986 RMK A01 T00341001  RH  077%=      5-min Rain = 0
KTAS 181225Z 23006KT 03/M00 A2986 RMK A01 T00341002  RH  078%=      5-min Rain = 0
KTAS 181226Z 22007KT 03/M00 A2986 RMK A01 T00331002  RH  078%=      5-min Rain = 0
KTAS 181227Z 22007KT 03/M00 A2985 RMK A01 T00341002  RH  078%=      5-min Rain = 0
KTAS 181228Z 23007KT 03/M00 A2986 RMK A01 T00331002  RH  078%=      5-min Rain = 0
KTAS 181229Z 23008KT 03/M00 A2985 RMK A01 T00331002  RH  078%=      5-min Rain = 0
KTAS 181230Z 22008KT 03/M00 A2985 RMK A01 T00331002  RH  078%=      5-min Rain = 0
KTAS 181231Z 22007KT 03/M00 A2985 RMK A01 T00331002  RH  078%=      5-min Rain = 0
KTAS 181232Z 22007KT 03/M00 A2985 RMK A01 T00321002  RH  078%=      5-min Rain = 0
KTAS 181233Z 22008KT 03/M00 A2985 RMK A01 T00331001  RH  078%=      5-min Rain = 0
KTAS 181234Z 22009KT 03/M00 A2986 RMK A01 T00331001  RH  078%=      5-min Rain = 0
KTAS 181235Z 22009KT 03/00 A2986 RMK A01 T00340000  RH  078%=      5-min Rain = 0
KTAS 181236Z 22008KT 04/00 A2986 RMK A01 T00350001  RH  078%=      5-min Rain = 0
KTAS 181237Z 22008KT 04/00 A2985 RMK A01 T00360001  RH  078%=      5-min Rain = 0
KTAS 181238Z 22009KT 04/00 A2985 RMK A01 T00360001  RH  078%=      5-min Rain = 0
KTAS 181239Z 22009KT 04/00 A2985 RMK A01 T00380002  RH  078%=      5-min Rain = 0
KTAS 181240Z 22010KT 04/00 A2985 RMK A01 T00390003  RH  077%=      5-min Rain = 0
KTAS 181241Z 22009KT 04/00 A2985 RMK A01 T00400003  RH  077%=      5-min Rain = 0
KTAS 181242Z 21010KT 04/00 A2985 RMK A01 T00410004  RH  077%=      5-min Rain = 0
KTAS 181243Z 22011KT 04/00 A2984 RMK A01 T00420004  RH  076%=      5-min Rain = 0
KTAS 181244Z 22010KT 04/00 A2985 RMK A01 T00440004  RH  075%=      5-min Rain = 0
KTAS 181245Z 22010KT 05/00 A2985 RMK A01 T00450004  RH  075%=      5-min Rain = 0
KTAS 181246Z 22010KT 05/00 A2985 RMK A01 T00450004  RH  075%=      5-min Rain = 0
KTAS 181247Z 23011KT 05/00 A2985 RMK A01 T00460004  RH  074%=      5-min Rain = 0
KTAS 181248Z 23010KT 05/00 A2985 RMK A01 T00470004  RH  074%=      5-min Rain = 0
KTAS 181249Z 22009KT 05/00 A2985 RMK A01 T00480004  RH  073%=      5-min Rain = 0
KTAS 181250Z 22009KT 05/00 A2985 RMK A01 T00480004  RH  073%=      5-min Rain = 0
KTAS 181251Z 22009KT 05/00 A2984 RMK A01 T00490004  RH  073%=      5-min Rain = 0
KTAS 181252Z 22009KT 05/01 A2984 RMK A01 T00500005  RH  072%=      5-min Rain = 0
KTAS 181253Z 22010KT 05/01 A2985 RMK A01 T00510005  RH  072%=      5-min Rain = 0
KTAS 181254Z 22010KT 05/01 A2985 RMK A01 T00520005  RH  072%=      5-min Rain = 0
KTAS 181255Z 23009KT 05/01 A2985 RMK A01 T00520005  RH  071%=      5-min Rain = 0
KTAS 181256Z 23009KT 05/00 A2985 RMK A01 T00520004  RH  071%=      5-min Rain = 0
KTAS 181257Z 23008KT 05/00 A2985 RMK A01 T00520004  RH  071%=      5-min Rain = 0
KTAS 181258Z 23009KT 05/00 A2985 RMK A01 T00510003  RH  071%=      5-min Rain = 0
KTAS 181259Z 23009KT 05/00 A2985 RMK A01 T00510003  RH  071%=      5-min Rain = 0
KTAS 181300Z 23008KT 05/00 A2985 RMK A01 T00500002  RH  071%=      5-min Rain = 0
KTAS 181301Z 23009KT 05/00 A2986 RMK A01 T00490002  RH  072%=      5-min Rain = 0
KTAS 181302Z 23010KT 05/00 A2986 RMK A01 T00490002  RH  072%=      5-min Rain = 0
KTAS 181303Z 23010KT 05/00 A2986 RMK A01 T00490002  RH  072%=      5-min Rain = 0
KTAS 181304Z 23009KT 05/00 A2986 RMK A01 T00480002  RH  072%=      5-min Rain = 0
KTAS 181305Z 23008KT 05/00 A2986 RMK A01 T00480002  RH  072%=      5-min Rain = 0
KTAS 181306Z 24008KT 05/00 A2986 RMK A01 T00480002  RH  072%=      5-min Rain = 0
KTAS 181307Z 24008KT 05/00 A2986 RMK A01 T00480002  RH  072%=      5-min Rain = 0
KTAS 181308Z 24008KT 05/00 A2986 RMK A01 T00470002  RH  072%=      5-min Rain = 0
KTAS 181309Z 24008KT 05/00 A2986 RMK A01 T00470002  RH  073%=      5-min Rain = 0
KTAS 181310Z 24007KT 05/00 A2986 RMK A01 T00460001  RH  073%=      5-min Rain = 0
KTAS 181311Z 24008KT 05/00 A2986 RMK A01 T00460001  RH  073%=      5-min Rain = 0
KTAS 181312Z 25007KT 05/00 A2986 RMK A01 T00450001  RH  073%=      5-min Rain = 0
KTAS 181313Z 25008KT 05/00 A2986 RMK A01 T00450001  RH  073%=      5-min Rain = 0
KTAS 181314Z 25007KT 04/00 A2986 RMK A01 T00440001  RH  074%=      5-min Rain = 0
KTAS 181315Z 25007KT 04/00 A2986 RMK A01 T00440001  RH  074%=      5-min Rain = 0
KTAS 181316Z 24008KT 04/00 A2986 RMK A01 T00440002  RH  074%=      5-min Rain = 0
KTAS 181317Z 24008KT 04/00 A2986 RMK A01 T00440002  RH  074%=      5-min Rain = 0
KTAS 181318Z 24008KT 05/00 A2986 RMK A01 T00450002  RH  074%=      5-min Rain = 0
KTAS 181319Z 24008KT 05/00 A2986 RMK A01 T00450003  RH  074%=      5-min Rain = 0
KTAS 181320Z 23008KT 05/00 A2986 RMK A01 T00450003  RH  074%=      5-min Rain = 0
KTAS 181321Z 23008KT 05/00 A2986 RMK A01 T00450003  RH  074%=      5-min Rain = 0
KTAS 181322Z 23008KT 05/00 A2986 RMK A01 T00460003  RH  074%=      5-min Rain = 0
KTAS 181323Z 22008KT 05/00 A2986 RMK A01 T00460003  RH  074%=      5-min Rain = 0
KTAS 181324Z 22009KT 05/00 A2985 RMK A01 T00460003  RH  074%=      5-min Rain = 0
KTAS 181325Z 22008KT 05/00 A2985 RMK A01 T00460004  RH  074%=      5-min Rain = 0
KTAS 181326Z 22009KT 05/00 A2985 RMK A01 T00460003  RH  074%=      5-min Rain = 0
KTAS 181327Z 23008KT 05/00 A2985 RMK A01 T00460004  RH  074%=      5-min Rain = 0
KTAS 181328Z 23008KT 05/00 A2985 RMK A01 T00460004  RH  074%=      5-min Rain = 0
KTAS 181329Z 23008KT 05/00 A2985 RMK A01 T00460004  RH  074%=      5-min Rain = 0
KTAS 181330Z 23008KT 05/00 A2985 RMK A01 T00470004  RH  074%=      5-min Rain = 0
KTAS 181331Z 23008KT 05/01 A2985 RMK A01 T00470005  RH  074%=      5-min Rain = 0
KTAS 181332Z 23008KT 05/01 A2986 RMK A01 T00470005  RH  074%=      5-min Rain = 0
KTAS 181333Z 23009KT 05/01 A2986 RMK A01 T00470005  RH  074%=      5-min Rain = 0
KTAS 181334Z 23008KT 05/01 A2986 RMK A01 T00470005  RH  074%=      5-min Rain = 0
KTAS 181335Z 23008KT 05/01 A2986 RMK A01 T00480005  RH  074%=      5-min Rain = 0
KTAS 181336Z 24008KT 05/01 A2986 RMK A01 T00480005  RH  074%=      5-min Rain = 0
KTAS 181337Z 24008KT 05/01 A2986 RMK A01 T00480005  RH  074%=      5-min Rain = 0
KTAS 181338Z 23008KT 05/01 A2985 RMK A01 T00490006  RH  074%=      5-min Rain = 0
KTAS 181339Z 23008KT 05/01 A2985 RMK A01 T00490006  RH  073%=      5-min Rain = 0
KTAS 181340Z 22007KT 05/01 A2985 RMK A01 T00490006  RH  073%=      5-min Rain = 0
KTAS 181341Z 23008KT 05/01 A2985 RMK A01 T00490005  RH  074%=      5-min Rain = 0
KTAS 181342Z 23008KT 05/01 A2985 RMK A01 T00490005  RH  074%=      5-min Rain = 0
KTAS 181343Z 23008KT 05/01 A2985 RMK A01 T00480005  RH  074%=      5-min Rain = 0
KTAS 181344Z 23008KT 05/01 A2985 RMK A01 T00480005  RH  074%=      5-min Rain = 0
KTAS 181345Z 23008KT 05/01 A2985 RMK A01 T00480006  RH  074%=      5-min Rain = 0
KTAS 181346Z 23008KT 05/01 A2985 RMK A01 T00480006  RH  074%=      5-min Rain = 0
KTAS 181347Z 23009KT 05/01 A2985 RMK A01 T00490006  RH  074%=      5-min Rain = 0
KTAS 181348Z 23008KT 05/01 A2985 RMK A01 T00490006  RH  074%=      5-min Rain = 0
KTAS 181349Z 23008KT 05/01 A2985 RMK A01 T00490006  RH  074%=      5-min Rain = 0
KTAS 181350Z 23008KT 05/01 A2985 RMK A01 T00490006  RH  074%=      5-min Rain = 0
KTAS 181351Z 24007KT 05/01 A2985 RMK A01 T00490007  RH  074%=      5-min Rain = 0
KTAS 181352Z 24008KT 05/01 A2985 RMK A01 T00490007  RH  074%=      5-min Rain = 0
KTAS 181353Z 23007KT 05/01 A2985 RMK A01 T00500007  RH  074%=      5-min Rain = 0
KTAS 181354Z 23007KT 05/01 A2985 RMK A01 T00500007  RH  074%=      5-min Rain = 0
KTAS 181355Z 23008KT 05/01 A2985 RMK A01 T00500008  RH  074%=      5-min Rain = 0
KTAS 181356Z 23007KT 05/01 A2985 RMK A01 T00510008  RH  074%=      5-min Rain = 0
KTAS 181357Z 23008KT 05/01 A2985 RMK A01 T00510008  RH  074%=      5-min Rain = 0
KTAS 181358Z 24007KT 05/01 A2985 RMK A01 T00520009  RH  074%=      5-min Rain = 0
KTAS 181359Z 23008KT 05/01 A2985 RMK A01 T00530009  RH  074%=      5-min Rain = 0
KTAS 181400Z 23009KT 05/01 A2985 RMK A01 T00530010  RH  073%=      5-min Rain = 0
KTAS 181401Z 23008KT 06/01 A2985 RMK A01 T00550010  RH  073%=      5-min Rain = 0
KTAS 181402Z 23008KT 06/01 A2985 RMK A01 T00560011  RH  073%=      5-min Rain = 0
KTAS 181403Z 23008KT 06/01 A2985 RMK A01 T00570011  RH  072%=      5-min Rain = 0
KTAS 181404Z 23008KT 06/01 A2985 RMK A01 T00570011  RH  072%=      5-min Rain = 0
KTAS 181405Z 23009KT 06/01 A2985 RMK A01 T00580011  RH  072%=      5-min Rain = 0
KTAS 181406Z 23009KT 06/01 A2985 RMK A01 T00580012  RH  072%=      5-min Rain = 0
KTAS 181407Z 23009KT 06/01 A2985 RMK A01 T00590012  RH  072%=      5-min Rain = 0
KTAS 181408Z 23009KT 06/01 A2985 RMK A01 T00600012  RH  071%=      5-min Rain = 0
KTAS 181409Z 23009KT 06/01 A2985 RMK A01 T00600012  RH  071%=      5-min Rain = 0
KTAS 181410Z 23009KT 06/01 A2985 RMK A01 T00610012  RH  071%=      5-min Rain = 0
KTAS 181411Z 23009KT 06/01 A2985 RMK A01 T00620012  RH  071%=      5-min Rain = 0
KTAS 181412Z 23009KT 06/01 A2985 RMK A01 T00620012  RH  070%=      5-min Rain = 0
KTAS 181413Z 23009KT 06/01 A2985 RMK A01 T00620012  RH  070%=      5-min Rain = 0
KTAS 181414Z 23009KT 06/01 A2985 RMK A01 T00620011  RH  070%=      5-min Rain = 0
KTAS 181415Z 23009KT 06/01 A2985 RMK A01 T00610011  RH  070%=      5-min Rain = 0
KTAS 181416Z 23009KT 06/01 A2985 RMK A01 T00610011  RH  070%=      5-min Rain = 0
KTAS 181417Z 23008KT 06/01 A2984 RMK A01 T00610011  RH  070%=      5-min Rain = 0
KTAS 181418Z 23008KT 06/01 A2984 RMK A01 T00610011  RH  070%=      5-min Rain = 0
KTAS 181419Z 23008KT 06/01 A2984 RMK A01 T00600011  RH  070%=      5-min Rain = 0
KTAS 181420Z 23009KT 06/01 A2984 RMK A01 T00610011  RH  070%=      5-min Rain = 0
KTAS 181421Z 23008KT 06/01 A2984 RMK A01 T00610011  RH  070%=      5-min Rain = 0
KTAS 181422Z 23009KT 06/01 A2984 RMK A01 T00610011  RH  070%=      5-min Rain = 0
KTAS 181423Z 23008KT 06/01 A2984 RMK A01 T00610011  RH  070%=      5-min Rain = 0
KTAS 181424Z 23009KT 06/01 A2984 RMK A01 T00610011  RH  070%=      5-min Rain = 0
KTAS 181425Z 23008KT 06/01 A2984 RMK A01 T00610011  RH  070%=      5-min Rain = 0
KTAS 181426Z 23008KT 06/01 A2984 RMK A01 T00620011  RH  070%=      5-min Rain = 0
KTAS 181427Z 23009KT 06/01 A2984 RMK A01 T00610010  RH  070%=      5-min Rain = 0
KTAS 181428Z 23008KT 06/01 A2984 RMK A01 T00610010  RH  070%=      5-min Rain = 0
KTAS 181429Z 23008KT 06/01 A2984 RMK A01 T00600010  RH  070%=      5-min Rain = 0
KTAS 181430Z 23007KT 06/01 A2984 RMK A01 T00590010  RH  071%=      5-min Rain = 0
KTAS 181431Z 23008KT 06/01 A2984 RMK A01 T00580010  RH  071%=      5-min Rain = 0
KTAS 181432Z 23007KT 06/01 A2984 RMK A01 T00580010  RH  071%=      5-min Rain = 0
KTAS 181433Z 23008KT 06/01 A2984 RMK A01 T00580010  RH  071%=      5-min Rain = 0
KTAS 181434Z 23008KT 06/01 A2984 RMK A01 T00570010  RH  072%=      5-min Rain = 0
KTAS 181435Z 23008KT 06/01 A2984 RMK A01 T00570010  RH  072%=      5-min Rain = 0
KTAS 181436Z 23007KT 06/01 A2984 RMK A01 T00570010  RH  072%=      5-min Rain = 0
KTAS 181437Z 23007KT 06/01 A2984 RMK A01 T00570010  RH  072%=      5-min Rain = 0
KTAS 181438Z 22007KT 06/01 A2984 RMK A01 T00560010  RH  072%=      5-min Rain = 0
KTAS 181439Z 23007KT 06/01 A2984 RMK A01 T00560011  RH  072%=      5-min Rain = 0
KTAS 181440Z 23007KT 06/01 A2984 RMK A01 T00570011  RH  072%=      5-min Rain = 0
KTAS 181441Z 23007KT 06/01 A2984 RMK A01 T00580012  RH  072%=      5-min Rain = 0
KTAS 181442Z 24006KT 06/01 A2984 RMK A01 T00580012  RH  072%=      5-min Rain = 0
KTAS 181443Z 24007KT 06/01 A2984 RMK A01 T00590012  RH  072%=      5-min Rain = 0
KTAS 181444Z 24007KT 06/01 A2984 RMK A01 T00590013  RH  072%=      5-min Rain = 0
KTAS 181445Z 24006KT 06/01 A2984 RMK A01 T00600013  RH  072%=      5-min Rain = 0
KTAS 181446Z 24007KT 06/01 A2984 RMK A01 T00610013  RH  072%=      5-min Rain = 0
KTAS 181447Z 24006KT 06/01 A2984 RMK A01 T00620014  RH  071%=      5-min Rain = 0
KTAS 181448Z 25006KT 06/01 A2984 RMK A01 T00620014  RH  071%=      5-min Rain = 0
KTAS 181449Z 25006KT 06/01 A2984 RMK A01 T00630014  RH  071%=      5-min Rain = 0
KTAS 181450Z 25006KT 06/02 A2984 RMK A01 T00640015  RH  071%=      5-min Rain = 0
KTAS 181451Z 25006KT 07/02 A2984 RMK A01 T00660017  RH  071%=      5-min Rain = 0
KTAS 181452Z 24007KT 07/02 A2984 RMK A01 T00680017  RH  070%=      5-min Rain = 0
KTAS 181453Z 24008KT 07/02 A2984 RMK A01 T00700017  RH  069%=      5-min Rain = 0
KTAS 181454Z 24007KT 07/02 A2984 RMK A01 T00710017  RH  068%=      5-min Rain = 0
KTAS 181455Z 24007KT 07/02 A2984 RMK A01 T00730017  RH  068%=      5-min Rain = 0
KTAS 181456Z 23007KT 07/02 A2984 RMK A01 T00730016  RH  067%=      5-min Rain = 0
KTAS 181457Z 23007KT 07/02 A2984 RMK A01 T00720015  RH  067%=      5-min Rain = 0
KTAS 181458Z 23007KT 07/02 A2984 RMK A01 T00720015  RH  067%=      5-min Rain = 0
KTAS 181459Z 23008KT 07/01 A2984 RMK A01 T00710014  RH  067%=      5-min Rain = 0
KTAS 181500Z 23008KT 07/01 A2984 RMK A01 T00710014  RH  067%=      5-min Rain = 0
KTAS 181501Z 23007KT 07/01 A2984 RMK A01 T00700013  RH  067%=      5-min Rain = 0
KTAS 181502Z 23007KT 07/01 A2984 RMK A01 T00690013  RH  067%=      5-min Rain = 0
KTAS 181503Z 22007KT 07/01 A2984 RMK A01 T00680013  RH  068%=      5-min Rain = 0
KTAS 181504Z 23007KT 07/01 A2984 RMK A01 T00680013  RH  068%=      5-min Rain = 0
KTAS 181505Z 22007KT 07/01 A2984 RMK A01 T00680013  RH  068%=      5-min Rain = 0
KTAS 181506Z 23007KT 07/01 A2984 RMK A01 T00670012  RH  068%=      5-min Rain = 0
KTAS 181507Z 23007KT 07/01 A2984 RMK A01 T00670013  RH  068%=      5-min Rain = 0
KTAS 181508Z 23007KT 07/01 A2984 RMK A01 T00680013  RH  068%=      5-min Rain = 0
KTAS 181509Z 24006KT 07/02 A2984 RMK A01 T00690016  RH  069%=      5-min Rain = 0
KTAS 181510Z 24006KT 07/02 A2984 RMK A01 T00720017  RH  068%=      5-min Rain = 0
KTAS 181511Z 24006KT 07/02 A2984 RMK A01 T00740019  RH  068%=      5-min Rain = 0
KTAS 181512Z 23007KT 08/02 A2984 RMK A01 T00760018  RH  067%=      5-min Rain = 0
KTAS 181513Z 24005KT 08/02 A2984 RMK A01 T00780019  RH  066%=      5-min Rain = 0
KTAS 181514Z 24006KT 08/02 A2984 RMK A01 T00810020  RH  066%=      5-min Rain = 0
KTAS 181515Z 25007KT 08/02 A2984 RMK A01 T00830021  RH  065%=      5-min Rain = 0
KTAS 181516Z 24007KT 08/02 A2984 RMK A01 T00840020  RH  064%=      5-min Rain = 0
KTAS 181517Z 24008KT 09/02 A2984 RMK A01 T00860019  RH  063%=      5-min Rain = 0
KTAS 181518Z 24009KT 09/02 A2984 RMK A01 T00860019  RH  063%=      5-min Rain = 0
KTAS 181519Z 24009KT 09/02 A2984 RMK A01 T00870018  RH  062%=      5-min Rain = 0
KTAS 181520Z 24008KT 09/02 A2984 RMK A01 T00880019  RH  062%=      5-min Rain = 0
KTAS 181521Z 24009KT 09/02 A2984 RMK A01 T00900019  RH  061%=      5-min Rain = 0
KTAS 181522Z 23011KT 09/02 A2984 RMK A01 T00910018  RH  060%=      5-min Rain = 0
KTAS 181523Z 23009G15KT 09/02 A2984 RMK A01 T00920019  RH  060%=      5-min Rain = 0
KTAS 181524Z 23011KT 09/02 A2984 RMK A01 T00930018  RH  060%=      5-min Rain = 0
KTAS 181525Z 23010KT 09/02 A2984 RMK A01 T00930018  RH  059%=      5-min Rain = 0
KTAS 181526Z 23010KT 09/02 A2984 RMK A01 T00930018  RH  059%=      5-min Rain = 0
KTAS 181527Z 23011KT 09/02 A2983 RMK A01 T00940018  RH  059%=      5-min Rain = 0
KTAS 181528Z 23010KT 10/02 A2984 RMK A01 T00950019  RH  059%=      5-min Rain = 0
KTAS 181529Z 23009KT 10/02 A2984 RMK A01 T00970019  RH  058%=      5-min Rain = 0
KTAS 181530Z 24010KT 10/02 A2984 RMK A01 T00970018  RH  058%=      5-min Rain = 0
KTAS 181531Z 23008KT 10/02 A2984 RMK A01 T00970019  RH  058%=      5-min Rain = 0
KTAS 181532Z 23011KT 10/02 A2984 RMK A01 T00990019  RH  058%=      5-min Rain = 0
KTAS 181533Z 23010KT 10/02 A2983 RMK A01 T00990019  RH  057%=      5-min Rain = 0
KTAS 181534Z 23011KT 10/02 A2983 RMK A01 T01000019  RH  057%=      5-min Rain = 0
KTAS 181535Z 23011KT 10/02 A2983 RMK A01 T01000019  RH  057%=      5-min Rain = 0
KTAS 181536Z 23011KT 10/02 A2983 RMK A01 T01000018  RH  057%=      5-min Rain = 0
KTAS 181537Z 23011KT 10/02 A2983 RMK A01 T00990017  RH  057%=      5-min Rain = 0
KTAS 181538Z 23011KT 10/02 A2983 RMK A01 T00990018  RH  057%=      5-min Rain = 0
KTAS 181539Z 23011KT 10/02 A2983 RMK A01 T01010020  RH  057%=      5-min Rain = 0
KTAS 181540Z 23010KT 10/02 A2983 RMK A01 T01030020  RH  056%=      5-min Rain = 0
KTAS 181541Z 23010KT 11/02 A2983 RMK A01 T01050022  RH  056%=      5-min Rain = 0
KTAS 181542Z 23013KT 11/02 A2983 RMK A01 T01070021  RH  055%=      5-min Rain = 0
KTAS 181543Z 23011G16KT 11/02 A2983 RMK A01 T01070020  RH  055%=      5-min Rain = 0
KTAS 181544Z 23013KT 11/02 A2983 RMK A01 T01080020  RH  055%=      5-min Rain = 0
KTAS 181545Z 23012KT 11/02 A2983 RMK A01 T01080020  RH  054%=      5-min Rain = 0
KTAS 181546Z 23012KT 11/02 A2983 RMK A01 T01080020  RH  054%=      5-min Rain = 0
KTAS 181547Z 23013KT 11/02 A2983 RMK A01 T01090020  RH  054%=      5-min Rain = 0
KTAS 181548Z 23013KT 11/02 A2983 RMK A01 T01090019  RH  054%=      5-min Rain = 0
KTAS 181549Z 23013KT 11/02 A2983 RMK A01 T01090020  RH  054%=      5-min Rain = 0
KTAS 181550Z 23014KT 11/02 A2983 RMK A01 T01100019  RH  054%=      5-min Rain = 0
KTAS 181551Z 23012KT 11/02 A2983 RMK A01 T01110020  RH  053%=      5-min Rain = 0
KTAS 181552Z 23012KT 11/02 A2983 RMK A01 T01120022  RH  054%=      5-min Rain = 0
KTAS 181553Z 22011KT 12/02 A2983 RMK A01 T01150022  RH  053%=      5-min Rain = 0
KTAS 181554Z 22012KT 12/02 A2983 RMK A01 T01150021  RH  052%=      5-min Rain = 0
KTAS 181555Z 23011KT 12/02 A2983 RMK A01 T01160022  RH  052%=      5-min Rain = 0
KTAS 181556Z 23013KT 12/02 A2982 RMK A01 T01170022  RH  052%=      5-min Rain = 0
KTAS 181557Z 22013KT 12/02 A2982 RMK A01 T01200023  RH  052%=      5-min Rain = 0
KTAS 181558Z 23014KT 12/02 A2982 RMK A01 T01220022  RH  050%=      5-min Rain = 0
KTAS 181559Z 23016KT 12/02 A2982 RMK A01 T01220020  RH  049%=      5-min Rain = 0
KTAS 181600Z 23014KT 12/02 A2982 RMK A01 T01230019  RH  049%=      5-min Rain = 0
KTAS 181601Z 23014KT 12/02 A2982 RMK A01 T01230019  RH  049%=      5-min Rain = 0
KTAS 181602Z 23012KT 13/02 A2982 RMK A01 T01260021  RH  049%=      5-min Rain = 0
KTAS 181603Z 23015KT 13/02 A2982 RMK A01 T01270020  RH  048%=      5-min Rain = 0
KTAS 181604Z 23014KT 13/02 A2982 RMK A01 T01280018  RH  047%=      5-min Rain = 0
KTAS 181605Z 23014KT 13/02 A2982 RMK A01 T01290019  RH  047%=      5-min Rain = 0
KTAS 181606Z 23013KT 13/02 A2982 RMK A01 T01290019  RH  047%=      5-min Rain = 0
KTAS 181607Z 23013KT 13/02 A2982 RMK A01 T01300018  RH  047%=      5-min Rain = 0
KTAS 181608Z 24012KT 13/02 A2982 RMK A01 T01320019  RH  046%=      5-min Rain = 0
KTAS 181609Z 24012KT 13/02 A2982 RMK A01 T01340019  RH  046%=      5-min Rain = 0
KTAS 181610Z 24014KT 14/02 A2982 RMK A01 T01350018  RH  045%=      5-min Rain = 0
KTAS 181611Z 24014KT 13/02 A2982 RMK A01 T01340017  RH  045%=      5-min Rain = 0
KTAS 181612Z 24015KT 13/02 A2982 RMK A01 T01340015  RH  044%=      5-min Rain = 0
KTAS 181613Z 24018KT 13/02 A2982 RMK A01 T01340015  RH  044%=      5-min Rain = 0
KTAS 181614Z 23017KT 13/01 A2982 RMK A01 T01340014  RH  044%=      5-min Rain = 0
KTAS 181615Z 24017KT 13/02 A2982 RMK A01 T01340015  RH  044%=      5-min Rain = 0
KTAS 181616Z 23017KT 14/02 A2982 RMK A01 T01350015  RH  044%=      5-min Rain = 0
KTAS 181617Z 24015KT 14/02 A2982 RMK A01 T01360015  RH  044%=      5-min Rain = 0
KTAS 181618Z 24016KT 14/02 A2982 RMK A01 T01370016  RH  044%=      5-min Rain = 0
KTAS 181619Z 24016KT 14/02 A2982 RMK A01 T01380016  RH  043%=      5-min Rain = 0
KTAS 181620Z 24017KT 14/02 A2982 RMK A01 T01390015  RH  043%=      5-min Rain = 0
KTAS 181621Z 24016KT 14/02 A2982 RMK A01 T01400016  RH  043%=      5-min Rain = 0
KTAS 181622Z 24017KT 14/02 A2982 RMK A01 T01420016  RH  042%=      5-min Rain = 0
KTAS 181623Z 24015KT 14/02 A2982 RMK A01 T01430015  RH  042%=      5-min Rain = 0
KTAS 181624Z 25014KT 15/02 A2982 RMK A01 T01450016  RH  042%=      5-min Rain = 0
KTAS 181625Z 25014KT 15/02 A2982 RMK A01 T01480016  RH  041%=      5-min Rain = 0
KTAS 181626Z 25015KT 15/02 A2982 RMK A01 T01480015  RH  041%=      5-min Rain = 0
KTAS 181627Z 25014KT 15/02 A2982 RMK A01 T01480016  RH  041%=      5-min Rain = 0
KTAS 181628Z 25015KT 15/02 A2982 RMK A01 T01480015  RH  041%=      5-min Rain = 0
KTAS 181629Z 24015KT 15/01 A2982 RMK A01 T01490014  RH  040%=      5-min Rain = 0
KTAS 181630Z 25016KT 15/01 A2982 RMK A01 T01500014  RH  040%=      5-min Rain = 0
KTAS 181631Z 25016G21KT 15/01 A2982 RMK A01 T01510014  RH  040%=      5-min Rain = 0
KTAS 181632Z 25019KT 15/01 A2982 RMK A01 T01500014  RH  039%=      5-min Rain = 0
KTAS 181633Z 25015KT 15/01 A2983 RMK A01 T01500014  RH  040%=      5-min Rain = 0
KTAS 181634Z 25016KT 15/02 A2983 RMK A01 T01510015  RH  040%=      5-min Rain = 0
KTAS 181635Z 25014G19KT 15/02 A2983 RMK A01 T01530015  RH  039%=      5-min Rain = 0
KTAS 181636Z 25010KT 16/02 A2983 RMK A01 T01560017  RH  039%=      5-min Rain = 0
KTAS 181637Z 25013KT 16/02 A2983 RMK A01 T01590016  RH  038%=      5-min Rain = 0
KTAS 181638Z 25014KT 16/02 A2982 RMK A01 T01580016  RH  038%=      5-min Rain = 0
KTAS 181639Z 26015G20KT 16/01 A2982 RMK A01 T01570014  RH  038%=      5-min Rain = 0
KTAS 181640Z 26017KT 15/01 A2982 RMK A01 T01540012  RH  038%=      5-min Rain = 0
KTAS 181641Z 25016KT 15/01 A2982 RMK A01 T01530012  RH  038%=      5-min Rain = 0
KTAS 181642Z 25014KT 15/01 A2982 RMK A01 T01540013  RH  038%=      5-min Rain = 0
KTAS 181643Z 25014KT 16/02 A2982 RMK A01 T01580015  RH  038%=      5-min Rain = 0
KTAS 181644Z 25017KT 16/01 A2982 RMK A01 T01590014  RH  037%=      5-min Rain = 0
KTAS 181645Z 25015KT 16/01 A2982 RMK A01 T01590013  RH  037%=      5-min Rain = 0
KTAS 181646Z 26017G22KT 16/01 A2982 RMK A01 T01610013  RH  037%=      5-min Rain = 0
KTAS 181647Z 25020KT 16/01 A2982 RMK A01 T01590010  RH  036%=      5-min Rain = 0
KTAS 181648Z 25018KT 16/01 A2982 RMK A01 T01580011  RH  037%=      5-min Rain = 0
KTAS 181649Z 25018KT 16/01 A2982 RMK A01 T01600011  RH  037%=      5-min Rain = 0
KTAS 181650Z 25017KT 16/01 A2982 RMK A01 T01610012  RH  036%=      5-min Rain = 0
KTAS 181651Z 25018KT 16/01 A2982 RMK A01 T01630012  RH  036%=      5-min Rain = 0
KTAS 181652Z 25016KT 16/01 A2982 RMK A01 T01620012  RH  036%=      5-min Rain = 0
KTAS 181653Z 24018KT 16/01 A2981 RMK A01 T01610012  RH  036%=      5-min Rain = 0
KTAS 181654Z 25015G20KT 16/01 A2982 RMK A01 T01630013  RH  036%=      5-min Rain = 0
KTAS 181655Z 25015G22KT 17/02 A2981 RMK A01 T01660015  RH  036%=      5-min Rain = 0
KTAS 181656Z 25017KT 17/01 A2981 RMK A01 T01670012  RH  035%=      5-min Rain = 0
KTAS 181657Z 25019KT 17/01 A2981 RMK A01 T01660011  RH  035%=      5-min Rain = 0
KTAS 181658Z 25018KT 17/01 A2981 RMK A01 T01650011  RH  035%=      5-min Rain = 0
KTAS 181659Z 26019G24KT 17/01 A2981 RMK A01 T01660012  RH  035%=      5-min Rain = 0
KTAS 181700Z 25019KT 17/01 A2981 RMK A01 T01660011  RH  035%=      5-min Rain = 0
KTAS 181701Z 25017KT 17/01 A2981 RMK A01 T01670012  RH  035%=      5-min Rain = 0
KTAS 181702Z 25019KT 17/01 A2981 RMK A01 T01680011  RH  035%=      5-min Rain = 0
KTAS 181703Z 25017KT 17/01 A2981 RMK A01 T01680011  RH  035%=      5-min Rain = 0
KTAS 181704Z 25012KT 17/01 A2981 RMK A01 T01690014  RH  035%=      5-min Rain = 0
KTAS 181705Z 25016KT 17/01 A2981 RMK A01 T01720013  RH  034%=      5-min Rain = 0
KTAS 181706Z 25015G21KT 17/01 A298 RMK A01 T01710013  RH  034%=      5-min Rain = 0
KTAS 181707Z 25017KT 17/01 A298 RMK A01 T01730013  RH  034%=      5-min Rain = 0
KTAS 181708Z 25013KT 18/01 A298 RMK A01 T01750014  RH  034%=      5-min Rain = 0
KTAS 181709Z 25014G19KT 18/02 A298 RMK A01 T01790015  RH  033%=      5-min Rain = 0
KTAS 181710Z 25017KT 18/02 A298 RMK A01 T01810015  RH  033%=      5-min Rain = 0
KTAS 181711Z 25016KT 18/01 A298 RMK A01 T01810014  RH  033%=      5-min Rain = 0
KTAS 181712Z 25019G25KT 18/01 A298 RMK A01 T01840011  RH  031%=      5-min Rain = 0
KTAS 181713Z 25020KT 19/01 A298 RMK A01 T01850008  RH  030%=      5-min Rain = 0
KTAS 181714Z 26020G27KT 19/01 A298 RMK A01 T01850008  RH  030%=      5-min Rain = 0
KTAS 181715Z 26022G28KT 19/01 A2979 RMK A01 T01850007  RH  030%=      5-min Rain = 0
KTAS 181716Z 26023G29KT 19/01 A298 RMK A01 T01870005  RH  029%=      5-min Rain = 0
KTAS 181717Z 26021G27KT 19/00 A298 RMK A01 T01890004  RH  029%=      5-min Rain = 0
KTAS 181718Z 26022G27KT 19/00 A298 RMK A01 T01910003  RH  028%=      5-min Rain = 0
KTAS 181719Z 26022G28KT 19/00 A2979 RMK A01 T01910000  RH  028%=      5-min Rain = 0
KTAS 181720Z 26024G30KT 19/00 A2979 RMK A01 T019000-0  RH  028%=      5-min Rain = 0
KTAS 181721Z 26024G30KT 19/00 A2979 RMK A01 T019000-0  RH  028%=      5-min Rain = 0
KTAS 181722Z 25025G31KT 19/M00 A2979 RMK A01 T01891001  RH  028%=      5-min Rain = 0
KTAS 181723Z 25026G31KT 19/00 A2979 RMK A01 T01900000  RH  028%=      5-min Rain = 0
KTAS 181724Z 25026G31KT 19/00 A2979 RMK A01 T019100-0  RH  028%=      5-min Rain = 0
KTAS 181725Z 26027KT 19/00 A2979 RMK A01 T019100-0  RH  028%=      5-min Rain = 0
KTAS 181726Z 25020G26KT 19/00 A2979 RMK A01 T01910001  RH  028%=      5-min Rain = 0
KTAS 181727Z 25024G30KT 20/00 A2978 RMK A01 T01950002  RH  027%=      5-min Rain = 0
KTAS 181728Z 25023G28KT 19/00 A2979 RMK A01 T01940001  RH  027%=      5-min Rain = 0
KTAS 181729Z 25026G31KT 20/00 A2979 RMK A01 T01950001  RH  027%=      5-min Rain = 0
KTAS 181730Z 26022G27KT 20/00 A2978 RMK A01 T01950001  RH  027%=      5-min Rain = 0
KTAS 181731Z 26023KT 20/00 A2979 RMK A01 T01960001  RH  027%=      5-min Rain = 0
KTAS 181732Z 26024G29KT 20/00 A2978 RMK A01 T01960002  RH  027%=      5-min Rain = 0
KTAS 181733Z 26021G26KT 20/00 A2978 RMK A01 T01970001  RH  027%=      5-min Rain = 0
KTAS 181734Z 26019KT 20/00 A2978 RMK A01 T02000004  RH  027%=      5-min Rain = 0
KTAS 181735Z 26023G31KT 20/00 A2978 RMK A01 T02020002  RH  026%=      5-min Rain = 0
KTAS 181736Z 26028G37KT 20/M00 A2978 RMK A01 T01991002  RH  026%=      5-min Rain = 0
KTAS 181737Z 26026G32KT 20/M00 A2978 RMK A01 T01971002  RH  026%=      5-min Rain = 0
KTAS 181738Z 26019G25KT 20/00 A2978 RMK A01 T019700-0  RH  027%=      5-min Rain = 0
KTAS 181739Z 26020G25KT 20/00 A2978 RMK A01 T02010002  RH  026%=      5-min Rain = 0
KTAS 181740Z 26025G30KT 20/00 A2978 RMK A01 T02030000  RH  026%=      5-min Rain = 0
KTAS 181741Z 26022KT 20/00 A2978 RMK A01 T02020001  RH  026%=      5-min Rain = 0
KTAS 181742Z 25020KT 20/00 A2978 RMK A01 T02040001  RH  026%=      5-min Rain = 0
KTAS 181743Z 26022G29KT 21/00 A2978 RMK A01 T02050000  RH  025%=      5-min Rain = 0
KTAS 181744Z 25026G31KT 21/00 A2978 RMK A01 T02070001  RH  025%=      5-min Rain = 0
KTAS 181745Z 27024G30KT 21/M00 A2978 RMK A01 T02051002  RH  025%=      5-min Rain = 0
KTAS 181746Z 26025G32KT 20/M00 A2977 RMK A01 T02041004  RH  025%=      5-min Rain = 0
KTAS 181747Z 27026KT 20/M00 A2978 RMK A01 T02021004  RH  025%=      5-min Rain = 0
KTAS 181748Z 25028G33KT 20/M00 A2978 RMK A01 T02011003  RH  025%=      5-min Rain = 0
KTAS 181749Z 26030G39KT 20/M00 A2977 RMK A01 T02011004  RH  025%=      5-min Rain = 0
KTAS 181750Z 26023KT 20/M00 A2978 RMK A01 T02011002  RH  026%=      5-min Rain = 0
KTAS 181751Z 25020KT 20/M00 A2978 RMK A01 T02041002  RH  025%=      5-min Rain = 0
KTAS 181752Z 26022G29KT 20/M00 A2977 RMK A01 T02041003  RH  025%=      5-min Rain = 0
KTAS 181753Z 25030G35KT 20/M01 A2977 RMK A01 T02031005  RH  025%=      5-min Rain = 0
KTAS 181754Z 25027G32KT 20/M00 A2977 RMK A01 T02011004  RH  025%=      5-min Rain = 0
KTAS 181755Z 26024G31KT 20/M00 A2977 RMK A01 T02021004  RH  025%=      5-min Rain = 0
KTAS 181756Z 26027G32KT 20/M01 A2977 RMK A01 T02021005  RH  025%=      5-min Rain = 0
KTAS 181757Z 26027G34KT 20/M00 A2977 RMK A01 T02011004  RH  025%=      5-min Rain = 0
KTAS 181758Z 26026G31KT 20/M01 A2977 RMK A01 T01991006  RH  025%=      5-min Rain = 0
KTAS 181759Z 26025G30KT 20/M01 A2977 RMK A01 T01991005  RH  025%=      5-min Rain = 0
KTAS 181800Z 27025KT 20/M00 A2977 RMK A01 T01991003  RH  026%=      5-min Rain = 0
KTAS 181801Z 26020G25KT 20/M00 A2978 RMK A01 T02011001  RH  026%=      5-min Rain = 0
KTAS 181802Z 26021KT 20/M00 A2978 RMK A01 T02041001  RH  025%=      5-min Rain = 0
KTAS 181803Z 27021KT 21/M00 A2978 RMK A01 T02051003  RH  025%=      5-min Rain = 0
KTAS 181804Z 26024KT 21/M00 A2978 RMK A01 T02071002  RH  025%=      5-min Rain = 0
KTAS 181805Z 26020KT 21/M00 A2977 RMK A01 T02071002  RH  025%=      5-min Rain = 0
KTAS 181806Z 27022G30KT 21/M00 A2977 RMK A01 T02091002  RH  025%=      5-min Rain = 0
KTAS 181807Z 26026G33KT 21/M00 A2977 RMK A01 T02071002  RH  025%=      5-min Rain = 0
KTAS 181808Z 26026G33KT 21/M00 A2977 RMK A01 T02051004  RH  025%=      5-min Rain = 0
KTAS 181809Z 26023G29KT 20/M00 A2977 RMK A01 T02021004  RH  025%=      5-min Rain = 0
KTAS 181810Z 26023G29KT 20/M00 A2977 RMK A01 T02001004  RH  025%=      5-min Rain = 0
KTAS 181811Z 26025G31KT 20/M00 A2977 RMK A01 T01991003  RH  026%=      5-min Rain = 0
KTAS 181812Z 26026G32KT 20/M01 A2977 RMK A01 T01961005  RH  026%=      5-min Rain = 0
KTAS 181813Z 25027G32KT 20/M00 A2977 RMK A01 T01971004  RH  026%=      5-min Rain = 0
KTAS 181814Z 25024G30KT 20/M01 A2977 RMK A01 T01971005  RH  026%=      5-min Rain = 0
KTAS 181815Z 25025G30KT 20/M01 A2977 RMK A01 T01991005  RH  025%=      5-min Rain = 0
KTAS 181816Z 25019KT 20/M00 A2977 RMK A01 T02011004  RH  025%=      5-min Rain = 0
KTAS 181817Z 25018KT 21/M00 A2977 RMK A01 T02051002  RH  025%=      5-min Rain = 0
KTAS 181818Z 25026KT 20/M00 A2976 RMK A01 T02041004  RH  025%=      5-min Rain = 0
KTAS 181819Z 25023G28KT 20/M00 A2976 RMK A01 T02011004  RH  025%=      5-min Rain = 0
KTAS 181820Z 26025G33KT 20/M00 A2976 RMK A01 T02021003  RH  025%=      5-min Rain = 0
KTAS 181821Z 25027G33KT 20/M00 A2976 RMK A01 T02021003  RH  025%=      5-min Rain = 0
KTAS 181822Z 26024KT 20/M00 A2976 RMK A01 T02041001  RH  025%=      5-min Rain = 0
KTAS 181823Z 26024KT 21/M00 A2976 RMK A01 T02051003  RH  025%=      5-min Rain = 0
KTAS 181824Z 26022KT 21/00 A2976 RMK A01 T020600-0  RH  025%=      5-min Rain = 0
KTAS 181825Z 28025G32KT 21/M00 A2976 RMK A01 T02081004  RH  024%=      5-min Rain = 0
KTAS 181826Z 27029G34KT 21/M01 A2976 RMK A01 T02091005  RH  024%=      5-min Rain = 0
KTAS 181827Z 27026KT 21/M01 A2976 RMK A01 T02071007  RH  024%=      5-min Rain = 0
KTAS 181828Z 28025G33KT 20/M01 A2975 RMK A01 T02041010  RH  024%=      5-min Rain = 0
KTAS 181829Z 27026G33KT 20/M01 A2976 RMK A01 T02021009  RH  024%=      5-min Rain = 0
KTAS 181830Z 27022KT 20/M01 A2975 RMK A01 T02001010  RH  024%=      5-min Rain = 0
KTAS 181831Z 27023G28KT 20/M01 A2975 RMK A01 T01991008  RH  025%=      5-min Rain = 0
KTAS 181832Z 27021G28KT 20/M01 A2976 RMK A01 T02001007  RH  025%=      5-min Rain = 0
KTAS 181833Z 27024G31KT 20/M01 A2976 RMK A01 T02001008  RH  025%=      5-min Rain = 0
KTAS 181834Z 28024KT 20/M01 A2976 RMK A01 T01991008  RH  025%=      5-min Rain = 0
KTAS 181835Z 28024KT 20/M01 A2975 RMK A01 T01991008  RH  025%=      5-min Rain = 0
KTAS 181836Z 27023KT 20/M01 A2975 RMK A01 T02001007  RH  025%=      5-min Rain = 0
KTAS 181837Z 28023KT 20/M01 A2975 RMK A01 T02001008  RH  025%=      5-min Rain = 0
KTAS 181838Z 27019G24KT 20/M01 A2975 RMK A01 T02011007  RH  025%=      5-min Rain = 0
KTAS 181839Z 27024G29KT 20/M01 A2975 RMK A01 T02011008  RH  024%=      5-min Rain = 0
KTAS 181840Z 27023G28KT 20/M01 A2975 RMK A01 T01991010  RH  024%=      5-min Rain = 0
KTAS 181841Z 27023G29KT 20/M01 A2975 RMK A01 T01981010  RH  025%=      5-min Rain = 0
KTAS 181842Z 27022G29KT 20/M01 A2975 RMK A01 T01981009  RH  025%=      5-min Rain = 0
KTAS 181843Z 27021G27KT 20/M01 A2975 RMK A01 T01971009  RH  025%=      5-min Rain = 0
KTAS 181844Z 27019G26KT 20/M01 A2975 RMK A01 T01971008  RH  025%=      5-min Rain = 0
KTAS 181845Z 27022G27KT 20/M01 A2975 RMK A01 T01961010  RH  025%=      5-min Rain = 0
KTAS 181846Z 27026G32KT 20/M01 A2975 RMK A01 T01951010  RH  025%=      5-min Rain = 0
KTAS 181847Z 26025G33KT 19/M01 A2975 RMK A01 T01941010  RH  025%=      5-min Rain = 0
KTAS 181848Z 27028G34KT 19/M01 A2975 RMK A01 T01941012  RH  025%=      5-min Rain = 0
KTAS 181849Z 26025G30KT 19/M01 A2975 RMK A01 T01931011  RH  025%=      5-min Rain = 0
KTAS 181850Z 26028G33KT 19/M01 A2975 RMK A01 T01931011  RH  025%=      5-min Rain = 0
KTAS 181851Z 27027G32KT 19/M01 A2975 RMK A01 T01921011  RH  025%=      5-min Rain = 0
KTAS 181852Z 27027G32KT 19/M01 A2975 RMK A01 T01921011  RH  025%=      5-min Rain = 0
KTAS 181853Z 27025G31KT 19/M01 A2975 RMK A01 T01921010  RH  025%=      5-min Rain = 0
KTAS 181854Z 26025KT 19/M01 A2975 RMK A01 T01921010  RH  025%=      5-min Rain = 0
KTAS 181855Z 27024G30KT 19/M01 A2975 RMK A01 T01921011  RH  025%=      5-min Rain = 0
KTAS 181856Z 27025G30KT 19/M01 A2974 RMK A01 T01921011  RH  025%=      5-min Rain = 0
KTAS 181857Z 27023G29KT 19/M01 A2974 RMK A01 T01921010  RH  026%=      5-min Rain = 0
KTAS 181858Z 27021G26KT 19/M01 A2975 RMK A01 T01931009  RH  026%=      5-min Rain = 0
KTAS 181859Z 27020G25KT 19/M01 A2975 RMK A01 T01941008  RH  026%=      5-min Rain = 0
KTAS 181900Z 27023G30KT 20/M01 A2974 RMK A01 T01961008  RH  025%=      5-min Rain = 0
KTAS 181901Z 27024KT 20/M01 A2974 RMK A01 T01981010  RH  025%=      5-min Rain = 0
KTAS 181902Z 27024G29KT 19/M01 A2974 RMK A01 T01941011  RH  025%=      5-min Rain = 0
KTAS 181903Z 28025G31KT 19/M01 A2974 RMK A01 T01931010  RH  025%=      5-min Rain = 0
KTAS 181904Z 27025G30KT 19/M01 A2974 RMK A01 T01921010  RH  026%=      5-min Rain = 0
KTAS 181905Z 28022G27KT 19/M01 A2974 RMK A01 T01931009  RH  026%=      5-min Rain = 0
KTAS 181906Z 28023G28KT 19/M01 A2974 RMK A01 T01941009  RH  025%=      5-min Rain = 0
KTAS 181907Z 26020G27KT 20/M01 A2974 RMK A01 T01971007  RH  025%=      5-min Rain = 0
KTAS 181908Z 27024G30KT 20/M01 A2974 RMK A01 T01981008  RH  025%=      5-min Rain = 0
KTAS 181909Z 26024G30KT 20/M01 A2973 RMK A01 T01971009  RH  025%=      5-min Rain = 0
KTAS 181910Z 26025G32KT 20/M01 A2973 RMK A01 T01971010  RH  025%=      5-min Rain = 0
KTAS 181911Z 27024KT 20/M01 A2973 RMK A01 T01971009  RH  025%=      5-min Rain = 0
KTAS 181912Z 26023G29KT 20/M01 A2973 RMK A01 T01981008  RH  025%=      5-min Rain = 0
KTAS 181913Z 26026G31KT 20/M01 A2973 RMK A01 T01991010  RH  025%=      5-min Rain = 0
KTAS 181914Z 26029G34KT 20/M01 A2973 RMK A01 T01991011  RH  024%=      5-min Rain = 0
KTAS 181915Z 26027G33KT 20/M01 A2973 RMK A01 T01981013  RH  024%=      5-min Rain = 0
KTAS 181916Z 26029KT 20/M01 A2973 RMK A01 T01971014  RH  024%=      5-min Rain = 0
KTAS 181917Z 26025KT 20/M01 A2973 RMK A01 T01961014  RH  024%=      5-min Rain = 0
KTAS 181918Z 27028KT 20/M01 A2973 RMK A01 T01951012  RH  025%=      5-min Rain = 0
KTAS 181919Z 27023KT 20/M01 A2973 RMK A01 T01951011  RH  025%=      5-min Rain = 0
KTAS 181920Z 26025G30KT 20/M01 A2972 RMK A01 T01971011  RH  025%=      5-min Rain = 0
KTAS 181921Z 27023KT 20/M01 A2973 RMK A01 T01971011  RH  025%=      5-min Rain = 0
KTAS 181922Z 27025G32KT 20/M01 A2972 RMK A01 T01971012  RH  024%=      5-min Rain = 0
KTAS 181923Z 27022G29KT 20/M01 A2972 RMK A01 T01971011  RH  025%=      5-min Rain = 0
KTAS 181924Z 27026KT 20/M01 A2972 RMK A01 T01991008  RH  025%=      5-min Rain = 0
KTAS 181925Z 26026G32KT 20/M01 A2972 RMK A01 T02011009  RH  024%=      5-min Rain = 0
KTAS 181926Z 26026G33KT 20/M01 A2972 RMK A01 T02001009  RH  025%=      5-min Rain = 0
KTAS 181927Z 26029KT 20/M01 A2971 RMK A01 T01971010  RH  025%=      5-min Rain = 0
KTAS 181928Z 26025G30KT 20/M01 A2972 RMK A01 T01961010  RH  025%=      5-min Rain = 0
KTAS 181929Z 26024G33KT 20/M01 A2971 RMK A01 T01981008  RH  025%=      5-min Rain = 0
KTAS 181930Z 27020G27KT 20/M01 A2972 RMK A01 T02001007  RH  025%=      5-min Rain = 0
KTAS 181931Z 27021G26KT 20/M01 A2972 RMK A01 T02001007  RH  025%=      5-min Rain = 0
KTAS 181932Z 27024KT 20/M01 A2971 RMK A01 T02001008  RH  025%=      5-min Rain = 0
KTAS 181933Z 27022G29KT 20/M01 A2971 RMK A01 T01991008  RH  025%=      5-min Rain = 0
KTAS 181934Z 27024G32KT 20/M01 A2971 RMK A01 T02001009  RH  024%=      5-min Rain = 0
KTAS 181935Z 27024KT 20/M01 A2971 RMK A01 T02021009  RH  024%=      5-min Rain = 0
KTAS 181936Z 27024G31KT 20/M01 A2971 RMK A01 T02011011  RH  024%=      5-min Rain = 0
KTAS 181937Z 27023G30KT 20/M01 A2971 RMK A01 T02011011  RH  024%=      5-min Rain = 0
KTAS 181938Z 26028G35KT 20/M01 A297 RMK A01 T02021013  RH  023%=      5-min Rain = 0
KTAS 181939Z 27026G31KT 20/M01 A297 RMK A01 T02031013  RH  023%=      5-min Rain = 0
KTAS 181940Z 27026G31KT 20/M02 A297 RMK A01 T02021015  RH  023%=      5-min Rain = 0
KTAS 181941Z 27029G35KT 20/M02 A297 RMK A01 T02021015  RH  023%=      5-min Rain = 0
KTAS 181942Z 26029G35KT 20/M02 A297 RMK A01 T02011015  RH  023%=      5-min Rain = 0
KTAS 181943Z 27028G33KT 20/M01 A297 RMK A01 T02011014  RH  023%=      5-min Rain = 0
KTAS 181944Z 27030G35KT 20/M01 A297 RMK A01 T02011013  RH  024%=      5-min Rain = 0
KTAS 181945Z 28029G35KT 20/M01 A297 RMK A01 T02011012  RH  024%=      5-min Rain = 0
KTAS 181946Z 28026G32KT 20/M01 A297 RMK A01 T02021012  RH  024%=      5-min Rain = 0
KTAS 181947Z 27025KT 20/M01 A297 RMK A01 T02031011  RH  024%=      5-min Rain = 0
KTAS 181948Z 28025G30KT 20/M01 A297 RMK A01 T02031011  RH  024%=      5-min Rain = 0
KTAS 181949Z 27025G30KT 21/M01 A297 RMK A01 T02051010  RH  024%=      5-min Rain = 0
KTAS 181950Z 27029KT 21/M01 A297 RMK A01 T02051011  RH  023%=      5-min Rain = 0
KTAS 181951Z 26027G32KT 20/M01 A2969 RMK A01 T02031013  RH  023%=      5-min Rain = 0
KTAS 181952Z 26030G38KT 20/M02 A2969 RMK A01 T02031015  RH  023%=      5-min Rain = 0
KTAS 181953Z 27029KT 20/M01 A2969 RMK A01 T02031014  RH  023%=      5-min Rain = 0
KTAS 181954Z 28033G39KT 20/M02 A2969 RMK A01 T02041015  RH  023%=      5-min Rain = 0
KTAS 181955Z 27024G33KT 20/M01 A297 RMK A01 T02041011  RH  023%=      5-min Rain = 0
KTAS 181956Z 27027G32KT 21/M01 A2969 RMK A01 T02051012  RH  023%=      5-min Rain = 0
KTAS 181957Z 28027G33KT 20/M01 A2969 RMK A01 T02021013  RH  023%=      5-min Rain = 0
KTAS 181958Z 28025G31KT 20/M01 A2969 RMK A01 T02011012  RH  024%=      5-min Rain = 0
KTAS 181959Z 28026G32KT 20/M01 A2969 RMK A01 T02031012  RH  024%=      5-min Rain = 0
KTAS 182000Z 27026G32KT 20/M02 A2969 RMK A01 T02041015  RH  023%=      5-min Rain = 0
KTAS 182001Z 26029G34KT 21/M02 A2969 RMK A01 T02051015  RH  023%=      5-min Rain = 0
KTAS 182002Z 26024G30KT 20/M02 A2969 RMK A01 T02041015  RH  023%=      5-min Rain = 0
KTAS 182003Z 27023KT 21/M01 A2969 RMK A01 T02071013  RH  023%=      5-min Rain = 0
KTAS 182004Z 27026G31KT 21/M01 A2969 RMK A01 T02101014  RH  022%=      5-min Rain = 0
KTAS 182005Z 27025G30KT 21/M02 A2969 RMK A01 T02081017  RH  022%=      5-min Rain = 0
KTAS 182006Z 28029G36KT 21/M02 A2968 RMK A01 T02091016  RH  022%=      5-min Rain = 0
KTAS 182007Z 28029G34KT 21/M02 A2968 RMK A01 T02081018  RH  022%=      5-min Rain = 0
KTAS 182008Z 27025G30KT 21/M02 A2968 RMK A01 T02061017  RH  022%=      5-min Rain = 0
KTAS 182009Z 27030G38KT 21/M02 A2968 RMK A01 T02051018  RH  022%=      5-min Rain = 0
KTAS 182010Z 27029G34KT 20/M02 A2968 RMK A01 T02031017  RH  023%=      5-min Rain = 0
KTAS 182011Z 27029G34KT 20/M02 A2968 RMK A01 T02021017  RH  023%=      5-min Rain = 0
KTAS 182012Z 27027G33KT 20/M02 A2969 RMK A01 T01991015  RH  024%=      5-min Rain = 0
KTAS 182013Z 27025G32KT 20/M01 A2969 RMK A01 T01981013  RH  024%=      5-min Rain = 0
KTAS 182014Z 26026G31KT 20/M01 A2968 RMK A01 T01991014  RH  024%=      5-min Rain = 0
KTAS 182015Z 27027G35KT 20/M02 A2968 RMK A01 T01991017  RH  023%=      5-min Rain = 0
KTAS 182016Z 26029G36KT 20/M02 A2968 RMK A01 T01981020  RH  023%=      5-min Rain = 0
KTAS 182017Z 27026G33KT 20/M02 A2969 RMK A01 T02001018  RH  023%=      5-min Rain = 0
KTAS 182018Z 27029G35KT 20/M02 A2968 RMK A01 T02011020  RH  022%=      5-min Rain = 0
KTAS 182019Z 28026G32KT 20/M02 A2969 RMK A01 T01991017  RH  023%=      5-min Rain = 0
KTAS 182020Z 28029G36KT 20/M01 A2969 RMK A01 T02001011  RH  024%=      5-min Rain = 0
KTAS 182021Z 28027G32KT 20/M01 A2969 RMK A01 T01971009  RH  025%=      5-min Rain = 0
KTAS 182022Z 27027G33KT 20/M01 A2969 RMK A01 T01951008  RH  026%=      5-min Rain = 0
KTAS 182023Z 27026KT 19/M01 A2968 RMK A01 T01941007  RH  026%=      5-min Rain = 0
KTAS 182024Z 28024G30KT 20/M01 A2969 RMK A01 T01971006  RH  026%=      5-min Rain = 0
KTAS 182025Z 27024KT 20/M01 A2968 RMK A01 T01971007  RH  025%=      5-min Rain = 0
KTAS 182026Z 27025KT 20/M01 A2968 RMK A01 T01981007  RH  025%=      5-min Rain = 0
KTAS 182027Z 27025G33KT 20/M01 A2968 RMK A01 T01971008  RH  025%=      5-min Rain = 0
KTAS 182028Z 27024G31KT 20/M01 A2968 RMK A01 T01951009  RH  025%=      5-min Rain = 0
KTAS 182029Z 28025G32KT 20/M01 A2968 RMK A01 T01961008  RH  025%=      5-min Rain = 0
KTAS 182030Z 27020G29KT 20/M01 A2968 RMK A01 T01981007  RH  025%=      5-min Rain = 0
KTAS 182031Z 27025KT 20/M01 A2968 RMK A01 T02001006  RH  025%=      5-min Rain = 0
KTAS 182032Z 27028KT 20/M01 A2968 RMK A01 T01981007  RH  025%=      5-min Rain = 0
KTAS 182033Z 28026G33KT 20/M01 A2968 RMK A01 T01971008  RH  025%=      5-min Rain = 0
KTAS 182034Z 27027G35KT 20/M01 A2968 RMK A01 T02001007  RH  025%=      5-min Rain = 0
KTAS 182035Z 28027KT 20/M01 A2968 RMK A01 T02011008  RH  024%=      5-min Rain = 0
KTAS 182036Z 28026G34KT 20/M01 A2968 RMK A01 T02041007  RH  024%=      5-min Rain = 0
KTAS 182037Z 27025G30KT 21/M01 A2968 RMK A01 T02061008  RH  024%=      5-min Rain = 0
KTAS 182038Z 26023G29KT 20/M01 A2968 RMK A01 T02031011  RH  024%=      5-min Rain = 0
KTAS 182039Z 27024G30KT 20/M01 A2968 RMK A01 T02001013  RH  024%=      5-min Rain = 0
KTAS 182040Z 27027KT 20/M01 A2968 RMK A01 T01981014  RH  024%=      5-min Rain = 0
KTAS 182041Z 26025KT 20/M01 A2968 RMK A01 T02011013  RH  024%=      5-min Rain = 0
KTAS 182042Z 27030G37KT 21/M01 A2968 RMK A01 T02061014  RH  023%=      5-min Rain = 0
KTAS 182043Z 27027G32KT 21/M02 A2968 RMK A01 T02061016  RH  022%=      5-min Rain = 0
KTAS 182044Z 28029G35KT 21/M02 A2968 RMK A01 T02071018  RH  022%=      5-min Rain = 0
KTAS 182045Z 28025G31KT 20/M02 A2969 RMK A01 T02031017  RH  023%=      5-min Rain = 0
KTAS 182046Z 28030G36KT 20/M02 A2969 RMK A01 T01981018  RH  023%=      5-min Rain = 0
KTAS 182047Z 28031G38KT 19/M02 A2968 RMK A01 T01941017  RH  024%=      5-min Rain = 0
KTAS 182048Z 28028G34KT 19/M02 A2969 RMK A01 T01921016  RH  024%=      5-min Rain = 0
KTAS 182049Z 28027KT 19/M01 A2969 RMK A01 T01921014  RH  025%=      5-min Rain = 0
KTAS 182050Z 28028G34KT 19/M01 A2969 RMK A01 T01901013  RH  025%=      5-min Rain = 0
KTAS 182051Z 28024G29KT 19/M01 A2969 RMK A01 T01891012  RH  026%=      5-min Rain = 0
KTAS 182052Z 27028KT 19/M01 A2969 RMK A01 T01881012  RH  026%=      5-min Rain = 0
KTAS 182053Z 27023G29KT 19/M01 A2968 RMK A01 T01871011  RH  026%=      5-min Rain = 0
KTAS 182054Z 27026G32KT 19/M01 A2968 RMK A01 T01881010  RH  026%=      5-min Rain = 0
KTAS 182055Z 27026G33KT 19/M01 A2969 RMK A01 T01881011  RH  026%=      5-min Rain = 0
KTAS 182056Z 29028G34KT 19/M01 A2969 RMK A01 T01871011  RH  026%=      5-min Rain = 0
KTAS 182057Z 27022G27KT 19/M01 A2969 RMK A01 T01871010  RH  026%=      5-min Rain = 0
KTAS 182058Z 28030G36KT 19/M01 A2969 RMK A01 T01871010  RH  026%=      5-min Rain = 0
KTAS 182059Z 28025KT 19/M01 A2969 RMK A01 T01861010  RH  027%=      5-min Rain = 0
KTAS 182100Z 27025G32KT 19/M01 A2969 RMK A01 T01861008  RH  027%=      5-min Rain = 0
KTAS 182101Z 28031KT 19/M01 A2969 RMK A01 T01861008  RH  027%=      5-min Rain = 0
KTAS 182102Z 28026G34KT 19/M01 A2969 RMK A01 T01851007  RH  027%=      5-min Rain = 0
KTAS 182103Z 27030G36KT 19/M01 A2969 RMK A01 T01861007  RH  027%=      5-min Rain = 0
KTAS 182104Z 27028G34KT 19/M01 A2969 RMK A01 T01851006  RH  028%=      5-min Rain = 0
KTAS 182105Z 27026G33KT 18/M01 A2969 RMK A01 T01841005  RH  028%=      5-min Rain = 0
KTAS 182106Z 27027G32KT 18/M01 A2969 RMK A01 T01841006  RH  028%=      5-min Rain = 0
KTAS 182107Z 27027G33KT 18/M01 A2969 RMK A01 T01831006  RH  028%=      5-min Rain = 0
KTAS 182108Z 27023G33KT 18/M01 A2969 RMK A01 T01831006  RH  028%=      5-min Rain = 0
KTAS 182109Z 27024KT 18/M01 A2969 RMK A01 T01831006  RH  028%=      5-min Rain = 0
KTAS 182110Z 27022KT 18/M01 A297 RMK A01 T01831005  RH  028%=      5-min Rain = 0
KTAS 182111Z 27022G27KT 18/M01 A2969 RMK A01 T01831005  RH  028%=      5-min Rain = 0
KTAS 182112Z 27021G32KT 18/M00 A297 RMK A01 T01831004  RH  028%=      5-min Rain = 0
KTAS 182113Z 27025G32KT 18/M00 A2969 RMK A01 T01831004  RH  028%=      5-min Rain = 0
KTAS 182114Z 27029G34KT 18/M01 A2969 RMK A01 T01821005  RH  028%=      5-min Rain = 0
KTAS 182115Z 26028KT 18/M01 A2969 RMK A01 T01821005  RH  028%=      5-min Rain = 0
KTAS 182116Z 27027G32KT 18/M01 A2969 RMK A01 T01821005  RH  028%=      5-min Rain = 0
KTAS 182117Z 27024G31KT 18/M01 A2969 RMK A01 T01821005  RH  028%=      5-min Rain = 0
KTAS 182118Z 27023G30KT 18/M01 A2969 RMK A01 T01821006  RH  028%=      5-min Rain = 0
KTAS 182119Z 27019KT 18/M01 A2969 RMK A01 T01831005  RH  028%=      5-min Rain = 0
KTAS 182120Z 26019KT 18/M00 A2969 RMK A01 T01831004  RH  028%=      5-min Rain = 0
KTAS 182121Z 26020G25KT 18/M00 A2969 RMK A01 T01841004  RH  028%=      5-min Rain = 0
KTAS 182122Z 26023KT 18/M00 A2969 RMK A01 T01841004  RH  028%=      5-min Rain = 0
KTAS 182123Z 26023KT 18/M01 A2969 RMK A01 T01831005  RH  028%=      5-min Rain = 0
KTAS 182124Z 26021KT 18/M01 A2969 RMK A01 T01831005  RH  028%=      5-min Rain = 0
KTAS 182125Z 26024KT 18/M01 A2969 RMK A01 T01841006  RH  028%=      5-min Rain = 0
KTAS 182126Z 26025G30KT 18/M01 A2969 RMK A01 T01831007  RH  028%=      5-min Rain = 0
KTAS 182127Z 26025G31KT 18/M01 A2969 RMK A01 T01831007  RH  028%=      5-min Rain = 0
KTAS 182128Z 26025KT 18/M01 A2969 RMK A01 T01841006  RH  028%=      5-min Rain = 0
KTAS 182129Z 26026KT 18/M01 A2969 RMK A01 T01831007  RH  028%=      5-min Rain = 0
KTAS 182130Z 26023G29KT 18/M01 A2969 RMK A01 T01841006  RH  028%=      5-min Rain = 0
KTAS 182131Z 26024KT 18/M01 A2969 RMK A01 T01841006  RH  028%=      5-min Rain = 0
KTAS 182132Z 27023G28KT 18/M01 A2969 RMK A01 T01841006  RH  028%=      5-min Rain = 0
KTAS 182133Z 27019KT 18/M00 A297 RMK A01 T01841004  RH  028%=      5-min Rain = 0
KTAS 182134Z 28020G25KT 18/M00 A297 RMK A01 T01841003  RH  028%=      5-min Rain = 0
KTAS 182135Z 27022G29KT 18/M00 A297 RMK A01 T01841002  RH  028%=      5-min Rain = 0
KTAS 182136Z 27024G30KT 18/M00 A2969 RMK A01 T01841001  RH  029%=      5-min Rain = 0
KTAS 182137Z 28026KT 18/M00 A2969 RMK A01 T01831001  RH  029%=      5-min Rain = 0
KTAS 182138Z 27020G27KT 18/00 A2969 RMK A01 T01820000  RH  029%=      5-min Rain = 0
KTAS 182139Z 28023G31KT 18/00 A2969 RMK A01 T01820001  RH  029%=      5-min Rain = 0
KTAS 182140Z 28021G26KT 18/00 A2969 RMK A01 T01810001  RH  030%=      5-min Rain = 0
KTAS 182141Z 28025G32KT 18/00 A2969 RMK A01 T01810001  RH  030%=      5-min Rain = 0
KTAS 182142Z 28022G28KT 18/00 A2969 RMK A01 T01810001  RH  030%=      5-min Rain = 0
KTAS 182143Z 28025G31KT 18/00 A2969 RMK A01 T01820001  RH  029%=      5-min Rain = 0
KTAS 182144Z 28025G31KT 18/00 A2969 RMK A01 T01820001  RH  029%=      5-min Rain = 0
KTAS 182145Z 28026G33KT 18/00 A297 RMK A01 T01820001  RH  029%=      5-min Rain = 0
KTAS 182146Z 28026G31KT 18/00 A297 RMK A01 T01820000  RH  029%=      5-min Rain = 0
KTAS 182147Z 28025G31KT 18/00 A297 RMK A01 T01810000  RH  029%=      5-min Rain = 0
KTAS 182148Z 28022KT 18/00 A297 RMK A01 T01820001  RH  029%=      5-min Rain = 0
KTAS 182149Z 28024KT 18/00 A297 RMK A01 T018200-0  RH  029%=      5-min Rain = 0
KTAS 182150Z 28023G32KT 18/00 A297 RMK A01 T01820000  RH  029%=      5-min Rain = 0
KTAS 182151Z 28026G33KT 18/M00 A297 RMK A01 T01831001  RH  029%=      5-min Rain = 0
KTAS 182152Z 28025KT 18/M00 A297 RMK A01 T01821003  RH  029%=      5-min Rain = 0
KTAS 182153Z 28025KT 18/M00 A297 RMK A01 T01821003  RH  029%=      5-min Rain = 0
KTAS 182154Z 29025KT 18/M01 A297 RMK A01 T01821005  RH  028%=      5-min Rain = 0
KTAS 182155Z 28023G30KT 18/M01 A297 RMK A01 T01831005  RH  028%=      5-min Rain = 0
KTAS 182156Z 28025KT 19/M00 A297 RMK A01 T01851004  RH  028%=      5-min Rain = 0
KTAS 182157Z 28025G31KT 19/M01 A2969 RMK A01 T01851005  RH  028%=      5-min Rain = 0
KTAS 182158Z 28026G32KT 18/M01 A297 RMK A01 T01831005  RH  028%=      5-min Rain = 0
KTAS 182159Z 28022KT 18/M01 A297 RMK A01 T01831005  RH  028%=      5-min Rain = 0
KTAS 182200Z 28025G30KT 18/M00 A297 RMK A01 T01841004  RH  028%=      5-min Rain = 0
KTAS 182201Z 29030KT 19/M01 A297 RMK A01 T01851006  RH  028%=      5-min Rain = 0
KTAS 182202Z 28025KT 19/M01 A297 RMK A01 T01851006  RH  028%=      5-min Rain = 0
KTAS 182203Z 28026G31KT 18/M01 A297 RMK A01 T01841006  RH  028%=      5-min Rain = 0
KTAS 182204Z 28026G31KT 18/M01 A297 RMK A01 T01821007  RH  028%=      5-min Rain = 0
KTAS 182205Z 28028KT 18/M01 A297 RMK A01 T01811008  RH  028%=      5-min Rain = 0
KTAS 182206Z 28026KT 18/M01 A297 RMK A01 T01791008  RH  028%=      5-min Rain = 0
KTAS 182207Z 28023G29KT 18/M01 A297 RMK A01 T01781008  RH  028%=      5-min Rain = 0
KTAS 182208Z 28023G29KT 18/M01 A297 RMK A01 T01781007  RH  028%=      5-min Rain = 0
KTAS 182209Z 28023G29KT 18/M01 A2969 RMK A01 T01781007  RH  028%=      5-min Rain = 0
KTAS 182210Z 28022G29KT 18/M01 A297 RMK A01 T01781007  RH  029%=      5-min Rain = 0
KTAS 182211Z 28024KT 18/M01 A297 RMK A01 T01781006  RH  029%=      5-min Rain = 0
KTAS 182212Z 28025KT 18/M01 A297 RMK A01 T01781007  RH  029%=      5-min Rain = 0
KTAS 182213Z 28024KT 18/M01 A297 RMK A01 T01771006  RH  029%=      5-min Rain = 0
KTAS 182214Z 28024G31KT 18/M01 A297 RMK A01 T01771006  RH  029%=      5-min Rain = 0
KTAS 182215Z 28027G32KT 18/M01 A297 RMK A01 T01761006  RH  029%=      5-min Rain = 0
KTAS 182216Z 28022G30KT 18/M01 A297 RMK A01 T01751006  RH  029%=      5-min Rain = 0
KTAS 182217Z 28020KT 18/M01 A297 RMK A01 T01761005  RH  029%=      5-min Rain = 0
KTAS 182218Z 28019KT 18/M00 A297 RMK A01 T01761004  RH  029%=      5-min Rain = 0
KTAS 182219Z 28021KT 18/M00 A297 RMK A01 T01771004  RH  029%=      5-min Rain = 0
KTAS 182220Z 28022G27KT 18/M00 A297 RMK A01 T01761004  RH  029%=      5-min Rain = 0
KTAS 182221Z 27022G28KT 18/M00 A297 RMK A01 T01761004  RH  029%=      5-min Rain = 0
KTAS 182222Z 27020KT 18/M00 A297 RMK A01 T01761004  RH  030%=      5-min Rain = 0
KTAS 182223Z 28021KT 18/M00 A297 RMK A01 T01761004  RH  030%=      5-min Rain = 0
KTAS 182224Z 28021G27KT 18/M00 A297 RMK A01 T01751004  RH  030%=      5-min Rain = 0
KTAS 182225Z 28027KT 18/M01 A297 RMK A01 T01751005  RH  030%=      5-min Rain = 0
KTAS 182226Z 28025KT 17/M01 A297 RMK A01 T01741005  RH  030%=      5-min Rain = 0
KTAS 182227Z 28029G34KT 17/M01 A297 RMK A01 T01741005  RH  030%=      5-min Rain = 0
KTAS 182228Z 27025KT 17/M01 A297 RMK A01 T01731006  RH  030%=      5-min Rain = 0
KTAS 182229Z 28024G29KT 17/M01 A297 RMK A01 T01731006  RH  030%=      5-min Rain = 0
KTAS 182230Z 28026G34KT 17/M01 A297 RMK A01 T01721008  RH  029%=      5-min Rain = 0
KTAS 182231Z 28025KT 17/M01 A297 RMK A01 T01721009  RH  029%=      5-min Rain = 0
KTAS 182232Z 28023G29KT 17/M01 A2971 RMK A01 T01711009  RH  029%=      5-min Rain = 0
KTAS 182233Z 28027G34KT 17/M01 A297 RMK A01 T01711010  RH  029%=      5-min Rain = 0
KTAS 182234Z 28024KT 17/M01 A2971 RMK A01 T01711010  RH  029%=      5-min Rain = 0
KTAS 182235Z 28020G26KT 17/M01 A2971 RMK A01 T01701010  RH  029%=      5-min Rain = 0
KTAS 182236Z 28022KT 17/M01 A297 RMK A01 T01701011  RH  029%=      5-min Rain = 0
KTAS 182237Z 28019G26KT 17/M01 A2971 RMK A01 T01691011  RH  029%=      5-min Rain = 0
KTAS 182238Z 28022G27KT 17/M01 A2971 RMK A01 T01691012  RH  029%=      5-min Rain = 0
KTAS 182239Z 28022G28KT 17/M02 A2971 RMK A01 T01691015  RH  028%=      5-min Rain = 0
KTAS 182240Z 28027KT 17/M02 A2971 RMK A01 T01691019  RH  028%=      5-min Rain = 0
KTAS 182241Z 28024G29KT 17/M02 A2971 RMK A01 T01701021  RH  027%=      5-min Rain = 0
KTAS 182242Z 29029G34KT 17/M02 A2971 RMK A01 T01691023  RH  027%=      5-min Rain = 0
KTAS 182243Z 28028KT 17/M03 A2971 RMK A01 T01691026  RH  026%=      5-min Rain = 0
KTAS 182244Z 28027G34KT 17/M03 A2971 RMK A01 T01681027  RH  026%=      5-min Rain = 0
KTAS 182245Z 28023KT 17/M03 A2971 RMK A01 T01671028  RH  026%=      5-min Rain = 0
KTAS 182246Z 28028KT 17/M03 A2971 RMK A01 T01671028  RH  026%=      5-min Rain = 0
KTAS 182247Z 28027G34KT 17/M03 A2972 RMK A01 T01661028  RH  026%=      5-min Rain = 0
KTAS 182248Z 28030G35KT 17/M03 A2971 RMK A01 T01661028  RH  026%=      5-min Rain = 0
KTAS 182249Z 28028G35KT 17/M03 A2972 RMK A01 T01661028  RH  026%=      5-min Rain = 0
KTAS 182250Z 28027G33KT 17/M03 A2971 RMK A01 T01651029  RH  026%=      5-min Rain = 0
KTAS 182251Z 28030G37KT 17/M03 A2971 RMK A01 T01651030  RH  026%=      5-min Rain = 0
KTAS 182252Z 27028G34KT 17/M03 A2971 RMK A01 T01651032  RH  026%=      5-min Rain = 0
KTAS 182253Z 28028G36KT 16/M03 A2971 RMK A01 T01641034  RH  026%=      5-min Rain = 0
KTAS 182254Z 27028G34KT 16/M04 A2971 RMK A01 T01641036  RH  025%=      5-min Rain = 0
KTAS 182255Z 28028G33KT 16/M04 A2972 RMK A01 T01641036  RH  025%=      5-min Rain = 0
KTAS 182256Z 28030G40KT 16/M04 A2972 RMK A01 T01641036  RH  025%=      5-min Rain = 0
KTAS 182257Z 28032KT 16/M04 A2972 RMK A01 T01631038  RH  025%=      5-min Rain = 0
KTAS 182258Z 28030G37KT 16/M04 A2972 RMK A01 T01621039  RH  025%=      5-min Rain = 0
KTAS 182259Z 28027G33KT 16/M04 A2972 RMK A01 T01611040  RH  025%=      5-min Rain = 0
KTAS 182300Z 29031G37KT 16/M04 A2972 RMK A01 T01611040  RH  025%=      5-min Rain = 0
KTAS 182301Z 29026G31KT 16/M04 A2972 RMK A01 T01611040  RH  025%=      5-min Rain = 0
KTAS 182302Z 28024G29KT 16/M04 A2972 RMK A01 T01601037  RH  026%=      5-min Rain = 0
KTAS 182303Z 28021KT 16/M04 A2972 RMK A01 T01581037  RH  026%=      5-min Rain = 0
KTAS 182304Z 28022G31KT 16/M04 A2971 RMK A01 T01581036  RH  026%=      5-min Rain = 0
KTAS 182305Z 28024G30KT 16/M03 A2971 RMK A01 T01571033  RH  027%=      5-min Rain = 0
KTAS 182306Z 28021KT 16/M03 A2971 RMK A01 T01571030  RH  028%=      5-min Rain = 0
KTAS 182307Z 28023KT 16/M03 A297 RMK A01 T01561029  RH  028%=      5-min Rain = 0
KTAS 182308Z 28020KT 16/M03 A2971 RMK A01 T01561030  RH  028%=      5-min Rain = 0
KTAS 182309Z 28018G23KT 16/M03 A297 RMK A01 T01561031  RH  027%=      5-min Rain = 0
KTAS 182310Z 28016G22KT 16/M03 A297 RMK A01 T01551030  RH  028%=      5-min Rain = 0
KTAS 182311Z 28019G25KT 16/M03 A297 RMK A01 T01551028  RH  028%=      5-min Rain = 0
KTAS 182312Z 28020G26KT 16/M03 A297 RMK A01 T01561027  RH  028%=      5-min Rain = 0
KTAS 182313Z 28024G31KT 16/M03 A297 RMK A01 T01571029  RH  028%=      5-min Rain = 0
KTAS 182314Z 28019G24KT 16/M03 A297 RMK A01 T01571030  RH  028%=      5-min Rain = 0
KTAS 182315Z 28018KT 16/M03 A297 RMK A01 T01561030  RH  028%=      5-min Rain = 0
KTAS 182316Z 28018G24KT 16/M03 A297 RMK A01 T01551030  RH  028%=      5-min Rain = 0
KTAS 182317Z 27019KT 16/M03 A297 RMK A01 T01551032  RH  028%=      5-min Rain = 0
KTAS 182318Z 27016KT 15/M03 A297 RMK A01 T01541032  RH  028%=      5-min Rain = 0
KTAS 182319Z 27017KT 15/M03 A297 RMK A01 T01531033  RH  028%=      5-min Rain = 0
KTAS 182320Z 28018G23KT 15/M04 A297 RMK A01 T01531035  RH  027%=      5-min Rain = 0
KTAS 182321Z 27018G24KT 15/M04 A297 RMK A01 T01531037  RH  027%=      5-min Rain = 0
KTAS 182322Z 28016KT 15/M04 A297 RMK A01 T01531039  RH  026%=      5-min Rain = 0
KTAS 182323Z 28013KT 15/M04 A297 RMK A01 T01521039  RH  027%=      5-min Rain = 0
KTAS 182324Z 27015KT 15/M04 A297 RMK A01 T01511040  RH  026%=      5-min Rain = 0
KTAS 182325Z 27015G20KT 15/M04 A297 RMK A01 T01511040  RH  026%=      5-min Rain = 0
KTAS 182326Z 27016KT 15/M04 A297 RMK A01 T01511040  RH  026%=      5-min Rain = 0
KTAS 182327Z 27016KT 15/M04 A297 RMK A01 T01511040  RH  026%=      5-min Rain = 0
KTAS 182328Z 27015KT 15/M04 A297 RMK A01 T01511040  RH  026%=      5-min Rain = 0
KTAS 182329Z 27016KT 15/M04 A297 RMK A01 T01511040  RH  027%=      5-min Rain = 0
KTAS 182330Z 27014KT 15/M04 A297 RMK A01 T01511039  RH  027%=      5-min Rain = 0
KTAS 182331Z 27013KT 15/M04 A2971 RMK A01 T01501038  RH  027%=      5-min Rain = 0
KTAS 182332Z 27015KT 15/M04 A297 RMK A01 T01491037  RH  027%=      5-min Rain = 0
KTAS 182333Z 27013KT 15/M04 A2971 RMK A01 T01501037  RH  027%=      5-min Rain = 0
KTAS 182334Z 27014KT 15/M04 A297 RMK A01 T01491038  RH  027%=      5-min Rain = 0
KTAS 182335Z 26015KT 15/M04 A297 RMK A01 T01501038  RH  027%=      5-min Rain = 0
KTAS 182336Z 27015KT 15/M04 A297 RMK A01 T01501038  RH  027%=      5-min Rain = 0
KTAS 182337Z 26014KT 15/M04 A297 RMK A01 T01501039  RH  027%=      5-min Rain = 0
KTAS 182338Z 26014KT 15/M04 A297 RMK A01 T01491039  RH  027%=      5-min Rain = 0
KTAS 182339Z 26013KT 15/M04 A297 RMK A01 T01491040  RH  027%=      5-min Rain = 0
KTAS 182340Z 26012KT 15/M04 A297 RMK A01 T01491040  RH  027%=      5-min Rain = 0
KTAS 182341Z 25014KT 15/M04 A297 RMK A01 T01481041  RH  027%=      5-min Rain = 0
KTAS 182342Z 26013KT 15/M04 A297 RMK A01 T01481042  RH  027%=      5-min Rain = 0
KTAS 182343Z 26014KT 15/M04 A297 RMK A01 T01481043  RH  026%=      5-min Rain = 0
KTAS 182344Z 26015KT 15/M05 A297 RMK A01 T01481045  RH  026%=      5-min Rain = 0
KTAS 182345Z 26017KT 15/M05 A297 RMK A01 T01491046  RH  026%=      5-min Rain = 0
KTAS 182346Z 25017KT 15/M05 A297 RMK A01 T01491047  RH  026%=      5-min Rain = 0
KTAS 182347Z 25018KT 15/M05 A297 RMK A01 T01491048  RH  025%=      5-min Rain = 0
KTAS 182348Z 25015KT 15/M05 A297 RMK A01 T01491049  RH  025%=      5-min Rain = 0
KTAS 182349Z 25019KT 15/M05 A297 RMK A01 T01481051  RH  025%=      5-min Rain = 0
KTAS 182350Z 25016KT 15/M05 A297 RMK A01 T01481052  RH  025%=      5-min Rain = 0
KTAS 182351Z 25015KT 15/M05 A297 RMK A01 T01481052  RH  025%=      5-min Rain = 0
KTAS 182352Z 25018KT 15/M05 A297 RMK A01 T01471053  RH  025%=      5-min Rain = 0
KTAS 182353Z 25017KT 15/M05 A297 RMK A01 T01471053  RH  025%=      5-min Rain = 0
KTAS 182354Z 25017G22KT 15/M05 A297 RMK A01 T01471054  RH  024%=      5-min Rain = 0
KTAS 182355Z 25016KT 15/M06 A297 RMK A01 T01471055  RH  024%=      5-min Rain = 0
KTAS 182356Z 25019G24KT 15/M06 A297 RMK A01 T01461056  RH  024%=      5-min Rain = 0
KTAS 182357Z 26019G24KT 15/M06 A297 RMK A01 T01461057  RH  024%=      5-min Rain = 0
KTAS 182358Z 25020G25KT 15/M06 A297 RMK A01 T01461057  RH  024%=      5-min Rain = 0
KTAS 182359Z 25023KT 15/M06 A297 RMK A01 T01461058  RH  024%=      5-min Rain = 0
KTAS 190000Z 26020G25KT 15/M06 A297 RMK A01 T01461059  RH  024%=      5-min Rain = 0
KTAS 190001Z 26019G25KT 15/M06 A297 RMK A01 T01451058  RH  024%=      5-min Rain = 0
KTAS 190002Z 26021KT 15/M06 A297 RMK A01 T01451058  RH  024%=      5-min Rain = 0
KTAS 190003Z 26017G23KT 14/M06 A2971 RMK A01 T01441057  RH  024%=      5-min Rain = 0
KTAS 190004Z 26019KT 14/M06 A2971 RMK A01 T01431056  RH  025%=      5-min Rain = 0
KTAS 190005Z 26017KT 14/M06 A2971 RMK A01 T01431056  RH  025%=      5-min Rain = 0
KTAS 190006Z 26019G24KT 14/M06 A2971 RMK A01 T01431056  RH  025%=      5-min Rain = 0
KTAS 190007Z 26018KT 14/M06 A2971 RMK A01 T01431056  RH  025%=      5-min Rain = 0
KTAS 190008Z 26017KT 14/M06 A2971 RMK A01 T01421056  RH  025%=      5-min Rain = 0
KTAS 190009Z 26016KT 14/M06 A2971 RMK A01 T01421056  RH  025%=      5-min Rain = 0
KTAS 190010Z 26017KT 14/M06 A2972 RMK A01 T01421056  RH  025%=      5-min Rain = 0
KTAS 190011Z 26018KT 14/M06 A2972 RMK A01 T01411056  RH  025%=      5-min Rain = 0
KTAS 190012Z 26018G23KT 14/M06 A2972 RMK A01 T01411056  RH  025%=      5-min Rain = 0
KTAS 190013Z 26017KT 14/M06 A2972 RMK A01 T01411056  RH  025%=      5-min Rain = 0
KTAS 190014Z 26017G22KT 14/M06 A2972 RMK A01 T01411057  RH  025%=      5-min Rain = 0
KTAS 190015Z 26024KT 14/M06 A2972 RMK A01 T01411058  RH  025%=      5-min Rain = 0
KTAS 190016Z 25024G29KT 14/M06 A2972 RMK A01 T01431058  RH  024%=      5-min Rain = 0
KTAS 190017Z 25021G26KT 14/M06 A2973 RMK A01 T01431058  RH  024%=      5-min Rain = 0
KTAS 190018Z 25019G25KT 14/M06 A2973 RMK A01 T01421058  RH  025%=      5-min Rain = 0
KTAS 190019Z 26021KT 14/M06 A2973 RMK A01 T01411058  RH  025%=      5-min Rain = 0
KTAS 190020Z 26020G26KT 14/M06 A2973 RMK A01 T01411058  RH  025%=      5-min Rain = 0
KTAS 190021Z 25021KT 14/M06 A2974 RMK A01 T01411058  RH  025%=      5-min Rain = 0
KTAS 190022Z 25019KT 14/M06 A2974 RMK A01 T01411058  RH  025%=      5-min Rain = 0
KTAS 190023Z 25021G30KT 14/M06 A2974 RMK A01 T01401057  RH  025%=      5-min Rain = 0
KTAS 190024Z 25022G30KT 14/M06 A2973 RMK A01 T01401057  RH  025%=      5-min Rain = 0
KTAS 190025Z 25019KT 14/M06 A2973 RMK A01 T01411057  RH  025%=      5-min Rain = 0
KTAS 190026Z 25018KT 14/M06 A2972 RMK A01 T01401056  RH  025%=      5-min Rain = 0
KTAS 190027Z 25019KT 14/M06 A2973 RMK A01 T01401057  RH  025%=      5-min Rain = 0
KTAS 190028Z 25018G23KT 14/M06 A2973 RMK A01 T01391057  RH  025%=      5-min Rain = 0
KTAS 190029Z 26017KT 14/M06 A2973 RMK A01 T01391057  RH  025%=      5-min Rain = 0
KTAS 190030Z 25020KT 14/M06 A2972 RMK A01 T01391057  RH  025%=      5-min Rain = 0
KTAS 190031Z 26017G23KT 14/M06 A2972 RMK A01 T01391057  RH  025%=      5-min Rain = 0
KTAS 190032Z 25018KT 14/M06 A2972 RMK A01 T01381058  RH  025%=      5-min Rain = 0
KTAS 190033Z 26018KT 14/M06 A2973 RMK A01 T01371058  RH  025%=      5-min Rain = 0
KTAS 190034Z 25018KT 14/M06 A2973 RMK A01 T01371058  RH  025%=      5-min Rain = 0
KTAS 190035Z 26016G21KT 14/M06 A2973 RMK A01 T01361058  RH  025%=      5-min Rain = 0
KTAS 190036Z 25017G23KT 14/M06 A2973 RMK A01 T01351058  RH  026%=      5-min Rain = 0
KTAS 190037Z 25021KT 13/M06 A2973 RMK A01 T01341059  RH  026%=      5-min Rain = 0
KTAS 190038Z 26020KT 14/M06 A2973 RMK A01 T01351060  RH  025%=      5-min Rain = 0
KTAS 190039Z 26017KT 14/M06 A2973 RMK A01 T01351059  RH  026%=      5-min Rain = 0
KTAS 190040Z 26016KT 13/M06 A2973 RMK A01 T01331059  RH  026%=      5-min Rain = 0
KTAS 190041Z 26015KT 13/M06 A2973 RMK A01 T01321060  RH  026%=      5-min Rain = 0
KTAS 190042Z 26016KT 13/M06 A2973 RMK A01 T01321060  RH  026%=      5-min Rain = 0
KTAS 190043Z 26015KT 13/M06 A2973 RMK A01 T01311060  RH  026%=      5-min Rain = 0
KTAS 190044Z 26015G20KT 13/M06 A2973 RMK A01 T01311060  RH  026%=      5-min Rain = 0
KTAS 190045Z 26015KT 13/M06 A2973 RMK A01 T01311060  RH  026%=      5-min Rain = 0
KTAS 190046Z 26017KT 13/M06 A2974 RMK A01 T01301061  RH  026%=      5-min Rain = 0
KTAS 190047Z 26014KT 13/M06 A2974 RMK A01 T01301061  RH  026%=      5-min Rain = 0
KTAS 190048Z 26014KT 13/M06 A2974 RMK A01 T01291061  RH  026%=      5-min Rain = 0
KTAS 190049Z 26013G18KT 13/M06 A2974 RMK A01 T01281061  RH  026%=      5-min Rain = 0
KTAS 190050Z 26013KT 13/M06 A2974 RMK A01 T01281061  RH  026%=      5-min Rain = 0
KTAS 190051Z 26014G19KT 13/M06 A2974 RMK A01 T01271061  RH  026%=      5-min Rain = 0
KTAS 190052Z 26013KT 13/M06 A2974 RMK A01 T01261062  RH  026%=      5-min Rain = 0
KTAS 190053Z 26013KT 13/M06 A2974 RMK A01 T01261062  RH  026%=      5-min Rain = 0
KTAS 190054Z 26013KT 13/M06 A2974 RMK A01 T01261062  RH  026%=      5-min Rain = 0
KTAS 190055Z 26013KT 13/M06 A2974 RMK A01 T01251062  RH  027%=      5-min Rain = 0
KTAS 190056Z 26013KT 13/M06 A2974 RMK A01 T01251062  RH  027%=      5-min Rain = 0
KTAS 190057Z 26011KT 12/M06 A2975 RMK A01 T01241062  RH  027%=      5-min Rain = 0
KTAS 190058Z 26014KT 12/M06 A2974 RMK A01 T01241063  RH  027%=      5-min Rain = 0
KTAS 190059Z 26012KT 12/M06 A2975 RMK A01 T01241063  RH  027%=      5-min Rain = 0
KTAS 190100Z 27014KT 12/M06 A2975 RMK A01 T01231064  RH  027%=      5-min Rain = 0
KTAS 190101Z 27014KT 12/M06 A2975 RMK A01 T01241064  RH  026%=      5-min Rain = 0
KTAS 190102Z 27013KT 12/M06 A2975 RMK A01 T01231064  RH  027%=      5-min Rain = 0
KTAS 190103Z 27012KT 12/M07 A2975 RMK A01 T01221065  RH  027%=      5-min Rain = 0
KTAS 190104Z 27012KT 12/M07 A2975 RMK A01 T01211066  RH  027%=      5-min Rain = 0
KTAS 190105Z 27013KT 12/M07 A2975 RMK A01 T01211067  RH  026%=      5-min Rain = 0
KTAS 190106Z 27014KT 12/M07 A2975 RMK A01 T01211068  RH  026%=      5-min Rain = 0
KTAS 190107Z 27013KT 12/M07 A2975 RMK A01 T01221070  RH  025%=      5-min Rain = 0
KTAS 190108Z 27013KT 12/M07 A2975 RMK A01 T01231071  RH  025%=      5-min Rain = 0
KTAS 190109Z 27013KT 12/M07 A2975 RMK A01 T01231071  RH  025%=      5-min Rain = 0
KTAS 190110Z 27012KT 12/M07 A2975 RMK A01 T01231071  RH  025%=      5-min Rain = 0
KTAS 190111Z 27013KT 12/M07 A2975 RMK A01 T01231072  RH  025%=      5-min Rain = 0
KTAS 190112Z 27014KT 12/M07 A2975 RMK A01 T01241073  RH  025%=      5-min Rain = 0
KTAS 190113Z 27013KT 13/M07 A2975 RMK A01 T01251074  RH  024%=      5-min Rain = 0
KTAS 190114Z 27013KT 13/M07 A2975 RMK A01 T01251074  RH  024%=      5-min Rain = 0
KTAS 190115Z 27014KT 13/M08 A2975 RMK A01 T01261075  RH  024%=      5-min Rain = 0
KTAS 190116Z 27014KT 13/M08 A2975 RMK A01 T01271075  RH  024%=      5-min Rain = 0
KTAS 190117Z 27016KT 13/M08 A2975 RMK A01 T01271076  RH  024%=      5-min Rain = 0
KTAS 190118Z 27016KT 13/M08 A2975 RMK A01 T01291076  RH  023%=      5-min Rain = 0
KTAS 190119Z 27015KT 13/M08 A2975 RMK A01 T01281076  RH  023%=      5-min Rain = 0
KTAS 190120Z 28015KT 13/M08 A2975 RMK A01 T01281076  RH  023%=      5-min Rain = 0
KTAS 190121Z 28016KT 13/M08 A2975 RMK A01 T01271077  RH  023%=      5-min Rain = 0
KTAS 190122Z 28023G29KT 13/M08 A2975 RMK A01 T01291078  RH  023%=      5-min Rain = 0
KTAS 190123Z 28022G30KT 13/M08 A2975 RMK A01 T01331079  RH  022%=      5-min Rain = 0
KTAS 190124Z 28029G35KT 13/M08 A2975 RMK A01 T01341076  RH  022%=      5-min Rain = 0
KTAS 190125Z 28027G33KT 14/M07 A2975 RMK A01 T01361074  RH  023%=      5-min Rain = 0
KTAS 190126Z 28027KT 14/M07 A2975 RMK A01 T01361074  RH  023%=      5-min Rain = 0
KTAS 190127Z 28025KT 14/M07 A2975 RMK A01 T01361073  RH  023%=      5-min Rain = 0
KTAS 190128Z 28032KT 14/M07 A2975 RMK A01 T01351066  RH  024%=      5-min Rain = 0
KTAS 190129Z 30030G42KT 14/M06 A2975 RMK A01 T01361057  RH  026%=      5-min Rain = 0
KTAS 190130Z 30032G39KT 14/M04 A2976 RMK A01 T01351041  RH  029%=      5-min Rain = 0
KTAS 190131Z 30038G45KT 13/M03 A2976 RMK A01 T01321032  RH  032%=      5-min Rain = 0
KTAS 190132Z 31035G42KT 13/M03 A2976 RMK A01 T01291027  RH  034%=      5-min Rain = 0
KTAS 190133Z 32037G49KT 13/M02 A2976 RMK A01 T01261023  RH  035%=      5-min Rain = 0
KTAS 190134Z 32033G40KT 12/M02 A2976 RMK A01 T01231021  RH  037%=      5-min Rain = 0
KTAS 190135Z 32036G46KT 12/M02 A2977 RMK A01 T01211019  RH  038%=      5-min Rain = 0
KTAS 190136Z 32032G44KT 12/M02 A2977 RMK A01 T01201017  RH  039%=      5-min Rain = 0
KTAS 190137Z 32034G44KT 12/M02 A2977 RMK A01 T01191016  RH  039%=      5-min Rain = 0
KTAS 190138Z 32031G36KT 12/M02 A2978 RMK A01 T01181015  RH  040%=      5-min Rain = 0
KTAS 190139Z 32034G39KT 12/M02 A2978 RMK A01 T01171015  RH  040%=      5-min Rain = 0
KTAS 190140Z 32030KT 12/M02 A2978 RMK A01 T01161015  RH  040%=      5-min Rain = 0
KTAS 190141Z 32031G37KT 12/M01 A2978 RMK A01 T01161014  RH  040%=      5-min Rain = 0
KTAS 190142Z 32027G35KT 12/M01 A2979 RMK A01 T01151014  RH  041%=      5-min Rain = 0
KTAS 190143Z 32030G38KT 11/M01 A2979 RMK A01 T01141014  RH  041%=      5-min Rain = 0
KTAS 190144Z 32026G32KT 11/M01 A2979 RMK A01 T01131014  RH  041%=      5-min Rain = 0
KTAS 190145Z 32031KT 11/M01 A2979 RMK A01 T01121014  RH  042%=      5-min Rain = 0
KTAS 190146Z 32028KT 11/M01 A298 RMK A01 T01111013  RH  042%=      5-min Rain = 0
KTAS 190147Z 32031G39KT 11/M01 A298 RMK A01 T01111013  RH  042%=      5-min Rain = 0
KTAS 190148Z 32030G35KT 11/M01 A298 RMK A01 T01101013  RH  042%=      5-min Rain = 0
KTAS 190149Z 33027G35KT 11/M01 A298 RMK A01 T01091013  RH  043%=      5-min Rain = 0
KTAS 190150Z 32030G39KT 11/M01 A298 RMK A01 T01081013  RH  043%=      5-min Rain = 0
KTAS 190151Z 33025G30KT 11/M01 A298 RMK A01 T01081013  RH  043%=      5-min Rain = 0
KTAS 190152Z 33025G32KT 11/M01 A2981 RMK A01 T01061013  RH  043%=      5-min Rain = 0
KTAS 190153Z 32021KT 11/M01 A2981 RMK A01 T01061013  RH  044%=      5-min Rain = 0
KTAS 190154Z 32025G32KT 11/M01 A2981 RMK A01 T01051012  RH  044%=      5-min Rain = 0
KTAS 190155Z 32027G33KT 10/M01 A2981 RMK A01 T01041008  RH  046%=      5-min Rain = 0
KTAS 190156Z 32032G38KT 10/M00 A2981 RMK A01 T01021004  RH  048%=      5-min Rain = 0
KTAS 190157Z 32029G36KT 10/M00 A2981 RMK A01 T01001002  RH  049%=      5-min Rain = 0
KTAS 190158Z 32028G34KT 10/M00 A2982 RMK A01 T00991001  RH  050%=      5-min Rain = 0
KTAS 190159Z 32029G35KT 10/00 A2982 RMK A01 T009800-0  RH  050%=      5-min Rain = 0
KTAS 190200Z 32028G37KT 10/00 A2982 RMK A01 T00980001  RH  051%=      5-min Rain = 0
KTAS 190201Z 32030G37KT 10/00 A2982 RMK A01 T00970001  RH  051%=      5-min Rain = 0
KTAS 190202Z 32025G30KT 10/00 A2982 RMK A01 T00960002  RH  052%=      5-min Rain = 0
KTAS 190203Z 32025KT 10/00 A2982 RMK A01 T00960002  RH  052%=      5-min Rain = 0
KTAS 190204Z 32030G36KT 10/00 A2982 RMK A01 T00950002  RH  052%=      5-min Rain = 0
KTAS 190205Z 32028G37KT 10/00 A2982 RMK A01 T00950003  RH  053%=      5-min Rain = 0
KTAS 190206Z 32031G37KT 09/00 A2983 RMK A01 T00940003  RH  053%=      5-min Rain = 0
KTAS 190207Z 32031G36KT 09/00 A2983 RMK A01 T00940004  RH  053%=      5-min Rain = 0
KTAS 190208Z 32030G37KT 09/01 A2983 RMK A01 T00940005  RH  053%=      5-min Rain = 0
KTAS 190209Z 32030G35KT 09/01 A2983 RMK A01 T00940005  RH  054%=      5-min Rain = 0
KTAS 190210Z 33027G34KT 09/01 A2982 RMK A01 T00930005  RH  054%=      5-min Rain = 0
KTAS 190211Z 33027KT 09/01 A2982 RMK A01 T00930005  RH  054%=      5-min Rain = 0
KTAS 190212Z 34025G33KT 09/01 A2982 RMK A01 T00920005  RH  054%=      5-min Rain = 0
KTAS 190213Z 33021KT 09/01 A2982 RMK A01 T00910007  RH  056%=      5-min Rain = 0
KTAS 190214Z 34023KT 09/01 A2982 RMK A01 T00890008  RH  057%=      5-min Rain = 0
KTAS 190215Z 33022G27KT 09/01 A2982 RMK A01 T00880008  RH  057%=      5-min Rain = 0
KTAS 190216Z 33024KT 09/01 A2982 RMK A01 T00880008  RH  057%=      5-min Rain = 0
KTAS 190217Z 33023KT 09/01 A2982 RMK A01 T00890008  RH  057%=      5-min Rain = 0
KTAS 190218Z 33027G33KT 09/01 A2982 RMK A01 T00880008  RH  057%=      5-min Rain = 0
KTAS 190219Z 33023G32KT 09/01 A2982 RMK A01 T00880009  RH  057%=      5-min Rain = 0
KTAS 190220Z 33026KT 09/01 A2982 RMK A01 T00880009  RH  058%=      5-min Rain = 0
KTAS 190221Z 34023G28KT 09/01 A2982 RMK A01 T00880010  RH  058%=      5-min Rain = 0
KTAS 190222Z 33018KT 09/01 A2982 RMK A01 T00870009  RH  058%=      5-min Rain = 0
KTAS 190223Z 33021KT 09/01 A2982 RMK A01 T00850009  RH  059%=      5-min Rain = 0
KTAS 190224Z 33021G27KT 09/01 A2982 RMK A01 T00850011  RH  060%=      5-min Rain = 0
KTAS 190225Z 33021G26KT 08/01 A2983 RMK A01 T00840013  RH  061%=      5-min Rain = 0
KTAS 190226Z 33024G29KT 08/01 A2983 RMK A01 T00830013  RH  061%=      5-min Rain = 0
KTAS 190227Z 33020G26KT 08/01 A2983 RMK A01 T00820014  RH  062%=      5-min Rain = 0
KTAS 190228Z 32020G25KT 08/01 A2983 RMK A01 T00810014  RH  062%=      5-min Rain = 0
KTAS 190229Z 32020KT 08/02 A2984 RMK A01 T00810015  RH  063%=      5-min Rain = 0
KTAS 190230Z 32021G30KT 08/02 A2984 RMK A01 T00800015  RH  063%=      5-min Rain = 0
KTAS 190231Z 32023G28KT 08/02 A2984 RMK A01 T00800016  RH  064%=      5-min Rain = 0
KTAS 190232Z 33024G29KT 08/02 A2984 RMK A01 T00800017  RH  064%=      5-min Rain = 0
KTAS 190233Z 33023KT 08/02 A2984 RMK A01 T00800018  RH  065%=      5-min Rain = 0
KTAS 190234Z 33020KT 08/02 A2984 RMK A01 T00800018  RH  065%=      5-min Rain = 0
KTAS 190235Z 33021G26KT 08/02 A2984 RMK A01 T00790018  RH  065%=      5-min Rain = 0
KTAS 190236Z 32019G26KT 08/02 A2984 RMK A01 T00790018  RH  066%=      5-min Rain = 0
KTAS 190237Z 33024G30KT 08/02 A2984 RMK A01 T00780019  RH  066%=      5-min Rain = 0
KTAS 190238Z 33024G29KT 08/02 A2984 RMK A01 T00790020  RH  066%=      5-min Rain = 0
KTAS 190239Z 33019G24KT 08/02 A2985 RMK A01 T00780019  RH  066%=      5-min Rain = 0
KTAS 190240Z 33020G26KT 08/02 A2984 RMK A01 T00770019  RH  066%=      5-min Rain = 0
KTAS 190241Z 32025KT 08/02 A2985 RMK A01 T00770020  RH  067%=      5-min Rain = 0
KTAS 190242Z 33024G31KT 08/02 A2985 RMK A01 T00770020  RH  067%=      5-min Rain = 0
KTAS 190243Z 33022G29KT 08/02 A2985 RMK A01 T00760019  RH  067%=      5-min Rain = 0
KTAS 190244Z 33025G31KT 08/02 A2985 RMK A01 T00760019  RH  067%=      5-min Rain = 0
KTAS 190245Z 33022G27KT 08/02 A2985 RMK A01 T00760020  RH  067%=      5-min Rain = 0
KTAS 190246Z 33023G30KT 08/02 A2985 RMK A01 T00760020  RH  068%=      5-min Rain = 0
KTAS 190247Z 33019KT 08/02 A2985 RMK A01 T00770021  RH  068%=      5-min Rain = 0
KTAS 190248Z 33019KT 08/02 A2985 RMK A01 T00770021  RH  068%=      5-min Rain = 0
KTAS 190249Z 33019KT 08/02 A2986 RMK A01 T00770021  RH  068%=      5-min Rain = 0
KTAS 190250Z 32017KT 08/02 A2986 RMK A01 T00760022  RH  068%=      5-min Rain = 0
KTAS 190251Z 32016KT 08/02 A2986 RMK A01 T00760022  RH  069%=      5-min Rain = 0
KTAS 190252Z 32021G26KT 08/02 A2986 RMK A01 T00760024  RH  070%=      5-min Rain = 0
KTAS 190253Z 32019KT 08/03 A2986 RMK A01 T00750025  RH  070%=      5-min Rain = 0
KTAS 190254Z 32023G28KT 08/03 A2986 RMK A01 T00750025  RH  070%=      5-min Rain = 0
KTAS 190255Z 33025G30KT 08/02 A2986 RMK A01 T00750024  RH  070%=      5-min Rain = 0
KTAS 190256Z 33024G31KT 07/02 A2986 RMK A01 T00740023  RH  070%=      5-min Rain = 0
KTAS 190257Z 32028G33KT 07/02 A2987 RMK A01 T00730022  RH  070%=      5-min Rain = 0
KTAS 190258Z 32027G33KT 07/02 A2987 RMK A01 T00730021  RH  070%=      5-min Rain = 0
KTAS 190259Z 32028KT 07/02 A2987 RMK A01 T00720021  RH  070%=      5-min Rain = 0
KTAS 190300Z 32026G31KT 07/02 A2987 RMK A01 T00720021  RH  070%=      5-min Rain = 0
KTAS 190301Z 32023G32KT 07/02 A2987 RMK A01 T00710021  RH  070%=      5-min Rain = 0
KTAS 190302Z 32027KT 07/02 A2987 RMK A01 T00710020  RH  070%=      5-min Rain = 0
KTAS 190303Z 32028KT 07/02 A2988 RMK A01 T00690019  RH  070%=      5-min Rain = 0
KTAS 190304Z 32024G30KT 07/02 A2988 RMK A01 T00680018  RH  070%=      5-min Rain = 0
KTAS 190305Z 32028KT 07/02 A2988 RMK A01 T00670017  RH  070%=      5-min Rain = 0
KTAS 190306Z 32025G31KT 07/02 A2988 RMK A01 T00670017  RH  071%=      5-min Rain = 0
KTAS 190307Z 33020KT 07/02 A2988 RMK A01 T00670017  RH  071%=      5-min Rain = 0
KTAS 190308Z 33024KT 07/02 A2988 RMK A01 T00660017  RH  071%=      5-min Rain = 0
KTAS 190309Z 32027G33KT 07/02 A2988 RMK A01 T00650017  RH  071%=      5-min Rain = 0
KTAS 190310Z 32025KT 07/02 A2989 RMK A01 T00650016  RH  071%=      5-min Rain = 0
KTAS 190311Z 32028G33KT 06/02 A2988 RMK A01 T00640016  RH  071%=      5-min Rain = 0
KTAS 190312Z 33024KT 06/02 A2989 RMK A01 T00640016  RH  071%=      5-min Rain = 0
KTAS 190313Z 33026G33KT 06/02 A2989 RMK A01 T00640016  RH  071%=      5-min Rain = 0
KTAS 190314Z 33025KT 06/02 A2989 RMK A01 T00640016  RH  071%=      5-min Rain = 0
KTAS 190315Z 33027G32KT 06/02 A2989 RMK A01 T00630015  RH  071%=      5-min Rain = 0
KTAS 190316Z 33026G33KT 06/02 A2989 RMK A01 T00630015  RH  071%=      5-min Rain = 0
KTAS 190317Z 33028G34KT 06/01 A299 RMK A01 T00630014  RH  071%=      5-min Rain = 0
KTAS 190318Z 33026G31KT 06/01 A299 RMK A01 T00630013  RH  070%=      5-min Rain = 0
KTAS 190319Z 33019G25KT 06/01 A299 RMK A01 T00630013  RH  070%=      5-min Rain = 0
KTAS 190320Z 33024KT 06/01 A299 RMK A01 T00630013  RH  070%=      5-min Rain = 0
KTAS 190321Z 33024KT 06/01 A299 RMK A01 T00630013  RH  070%=      5-min Rain = 0
KTAS 190322Z 32024G32KT 06/01 A299 RMK A01 T00630012  RH  070%=      5-min Rain = 0
KTAS 190323Z 33025G32KT 06/01 A299 RMK A01 T00620011  RH  070%=      5-min Rain = 0
KTAS 190324Z 33025G31KT 06/01 A299 RMK A01 T00620011  RH  070%=      5-min Rain = 0
KTAS 190325Z 33022G28KT 06/01 A299 RMK A01 T00620011  RH  070%=      5-min Rain = 0
KTAS 190326Z 33019KT 06/01 A299 RMK A01 T00620011  RH  070%=      5-min Rain = 0
KTAS 190327Z 33019KT 06/01 A299 RMK A01 T00620011  RH  070%=      5-min Rain = 0
KTAS 190328Z 33025G30KT 06/01 A299 RMK A01 T00610010  RH  070%=      5-min Rain = 0
KTAS 190329Z 33027G32KT 06/01 A299 RMK A01 T00610008  RH  069%=      5-min Rain = 0
KTAS 190330Z 33027G33KT 06/01 A299 RMK A01 T00600007  RH  069%=      5-min Rain = 0
KTAS 190331Z 33025G32KT 06/01 A299 RMK A01 T00600006  RH  068%=      5-min Rain = 0
KTAS 190332Z 33028G35KT 06/01 A299 RMK A01 T00590005  RH  068%=      5-min Rain = 0
KTAS 190333Z 33031G37KT 06/00 A299 RMK A01 T00590003  RH  068%=      5-min Rain = 0
KTAS 190334Z 33026KT 06/00 A2991 RMK A01 T00590003  RH  067%=      5-min Rain = 0
KTAS 190335Z 33026G32KT 06/00 A2991 RMK A01 T00580002  RH  067%=      5-min Rain = 0
KTAS 190336Z 33024KT 06/00 A2991 RMK A01 T00580002  RH  067%=      5-min Rain = 0
KTAS 190337Z 33024G32KT 06/00 A2992 RMK A01 T00580002  RH  067%=      5-min Rain = 0
KTAS 190338Z 33029G34KT 06/M01 A2991 RMK A01 T00571005  RH  065%=      5-min Rain = 0
KTAS 190339Z 33034G44KT 06/M01 A2992 RMK A01 T00561010  RH  063%=      5-min Rain = 0
KTAS 190340Z 33037G42KT 05/M01 A2992 RMK A01 T00541014  RH  061%=      5-min Rain = 0
KTAS 190341Z 33032G38KT 05/M02 A2992 RMK A01 T00531016  RH  061%=      5-min Rain = 0
KTAS 190342Z 33031G42KT 05/M02 A2993 RMK A01 T00521017  RH  061%=      5-min Rain = 0
KTAS 190343Z 33029G39KT 05/M02 A2993 RMK A01 T00511017  RH  061%=      5-min Rain = 0
KTAS 190344Z 34026KT 05/M02 A2993 RMK A01 T00511016  RH  062%=      5-min Rain = 0
KTAS 190345Z 33029G38KT 05/M02 A2993 RMK A01 T00511016  RH  062%=      5-min Rain = 0
KTAS 190346Z 34031G38KT 05/M02 A2993 RMK A01 T00511017  RH  061%=      5-min Rain = 0
KTAS 190347Z 34029G38KT 05/M02 A2993 RMK A01 T00501018  RH  061%=      5-min Rain = 0
KTAS 190348Z 34032KT 05/M02 A2993 RMK A01 T00501018  RH  061%=      5-min Rain = 0
KTAS 190349Z 34031G36KT 05/M02 A2993 RMK A01 T00491019  RH  061%=      5-min Rain = 0
KTAS 190350Z 33029G36KT 05/M02 A2993 RMK A01 T00491019  RH  062%=      5-min Rain = 0
KTAS 190351Z 33032G37KT 05/M02 A2993 RMK A01 T00481019  RH  062%=      5-min Rain = 0
KTAS 190352Z 33029KT 05/M02 A2993 RMK A01 T00481019  RH  062%=      5-min Rain = 0
KTAS 190353Z 34029KT 05/M02 A2993 RMK A01 T00471019  RH  062%=      5-min Rain = 0
KTAS 190354Z 34025KT 05/M02 A2994 RMK A01 T00461018  RH  063%=      5-min Rain = 0
KTAS 190355Z 33030G35KT 05/M02 A2993 RMK A01 T00461019  RH  063%=      5-min Rain = 0
KTAS 190356Z 34027G33KT 05/M02 A2993 RMK A01 T00451020  RH  063%=      5-min Rain = 0
KTAS 190357Z 34028G34KT 05/M02 A2994 RMK A01 T00451021  RH  062%=      5-min Rain = 0
KTAS 190358Z 33026KT 05/M02 A2994 RMK A01 T00451021  RH  062%=      5-min Rain = 0
KTAS 190359Z 34028G34KT 05/M02 A2994 RMK A01 T00451022  RH  062%=      5-min Rain = 0
KTAS 190400Z 33027G35KT 04/M02 A2994 RMK A01 T00441022  RH  062%=      5-min Rain = 0
KTAS 190401Z 34026G35KT 04/M02 A2994 RMK A01 T00441022  RH  062%=      5-min Rain = 0
KTAS 190402Z 34024G35KT 04/M02 A2994 RMK A01 T00441023  RH  062%=      5-min Rain = 0
KTAS 190403Z 34022KT 04/M02 A2994 RMK A01 T00431024  RH  062%=      5-min Rain = 0
KTAS 190404Z 34027G35KT 04/M03 A2994 RMK A01 T00421025  RH  062%=      5-min Rain = 0
KTAS 190405Z 34026KT 04/M03 A2994 RMK A01 T00421026  RH  061%=      5-min Rain = 0
KTAS 190406Z 34026G31KT 04/M03 A2995 RMK A01 T00421026  RH  061%=      5-min Rain = 0
KTAS 190407Z 34023G28KT 04/M03 A2995 RMK A01 T00411026  RH  062%=      5-min Rain = 0
KTAS 190408Z 34027G32KT 04/M03 A2995 RMK A01 T00411026  RH  062%=      5-min Rain = 0
KTAS 190409Z 34031G40KT 04/M03 A2995 RMK A01 T00411027  RH  061%=      5-min Rain = 0
KTAS 190410Z 34031G37KT 04/M03 A2995 RMK A01 T00411028  RH  061%=      5-min Rain = 0
KTAS 190411Z 34027G33KT 04/M03 A2995 RMK A01 T00411029  RH  060%=      5-min Rain = 0
KTAS 190412Z 34026G34KT 04/M03 A2995 RMK A01 T00411029  RH  061%=      5-min Rain = 0
KTAS 190413Z 34022G33KT 04/M03 A2995 RMK A01 T00401029  RH  061%=      5-min Rain = 0
KTAS 190414Z 34031G39KT 04/M03 A2995 RMK A01 T00401029  RH  061%=      5-min Rain = 0
KTAS 190415Z 34031KT 04/M03 A2995 RMK A01 T00391030  RH  061%=      5-min Rain = 0
KTAS 190416Z 34028G34KT 04/M03 A2995 RMK A01 T00391030  RH  061%=      5-min Rain = 0
KTAS 190417Z 34025G31KT 04/M03 A2996 RMK A01 T00381030  RH  061%=      5-min Rain = 0
KTAS 190418Z 34024G30KT 04/M03 A2996 RMK A01 T00381030  RH  062%=      5-min Rain = 0
KTAS 190419Z 34024G31KT 04/M03 A2996 RMK A01 T00371029  RH  062%=      5-min Rain = 0
KTAS 190420Z 34027G35KT 04/M03 A2996 RMK A01 T00371028  RH  062%=      5-min Rain = 0
KTAS 190421Z 34024KT 04/M03 A2996 RMK A01 T00371028  RH  062%=      5-min Rain = 0
KTAS 190422Z 34028G34KT 04/M03 A2996 RMK A01 T00361029  RH  062%=      5-min Rain = 0
KTAS 190423Z 34028G34KT 04/M03 A2996 RMK A01 T00361028  RH  063%=      5-min Rain = 0
KTAS 190424Z 35027G33KT 04/M03 A2996 RMK A01 T00361028  RH  063%=      5-min Rain = 0
KTAS 190425Z 34023KT 04/M03 A2996 RMK A01 T00361028  RH  063%=      5-min Rain = 0
KTAS 190426Z 34025G30KT 04/M03 A2996 RMK A01 T00351028  RH  063%=      5-min Rain = 0
KTAS 190427Z 34031G39KT 04/M03 A2996 RMK A01 T00361026  RH  064%=      5-min Rain = 0
KTAS 190428Z 34022KT 04/M03 A2997 RMK A01 T00361026  RH  064%=      5-min Rain = 0
KTAS 190429Z 34026KT 04/M03 A2997 RMK A01 T00351026  RH  064%=      5-min Rain = 0
KTAS 190430Z 34026G31KT 04/M03 A2997 RMK A01 T00351025  RH  065%=      5-min Rain = 0
KTAS 190431Z 34028G33KT 04/M03 A2997 RMK A01 T00361025  RH  065%=      5-min Rain = 0
KTAS 190432Z 34028G35KT 04/M02 A2997 RMK A01 T00361024  RH  065%=      5-min Rain = 0
KTAS 190433Z 34026G33KT 04/M02 A2997 RMK A01 T00361024  RH  065%=      5-min Rain = 0
KTAS 190434Z 34022G29KT 04/M02 A2997 RMK A01 T00361024  RH  065%=      5-min Rain = 0
KTAS 190435Z 34025KT 04/M02 A2997 RMK A01 T00361024  RH  065%=      5-min Rain = 0
KTAS 190436Z 34022G29KT 04/M02 A2998 RMK A01 T00361024  RH  065%=      5-min Rain = 0
KTAS 190437Z 34023G30KT 04/M02 A2998 RMK A01 T00361023  RH  065%=      5-min Rain = 0
KTAS 190438Z 33024G31KT 04/M02 A2998 RMK A01 T00371022  RH  065%=      5-min Rain = 0
KTAS 190439Z 34026G32KT 04/M02 A2998 RMK A01 T00381021  RH  065%=      5-min Rain = 0
KTAS 190440Z 34026G32KT 04/M02 A2998 RMK A01 T00381021  RH  065%=      5-min Rain = 0
KTAS 190441Z 34025G33KT 04/M02 A2998 RMK A01 T00381020  RH  065%=      5-min Rain = 0
KTAS 190442Z 33024G29KT 04/M02 A2998 RMK A01 T00391020  RH  066%=      5-min Rain = 0
KTAS 190443Z 33024G32KT 04/M02 A2998 RMK A01 T00391019  RH  066%=      5-min Rain = 0
KTAS 190444Z 33028G33KT 04/M02 A2998 RMK A01 T00391018  RH  066%=      5-min Rain = 0
KTAS 190445Z 33025G30KT 04/M02 A2998 RMK A01 T00391018  RH  066%=      5-min Rain = 0
KTAS 190446Z 33026G32KT 04/M02 A2999 RMK A01 T00391018  RH  066%=      5-min Rain = 0
KTAS 190447Z 33026G35KT 04/M02 A2999 RMK A01 T00391020  RH  066%=      5-min Rain = 0
KTAS 190448Z 33028G34KT 04/M02 A2999 RMK A01 T00391023  RH  064%=      5-min Rain = 0
KTAS 190449Z 33024G29KT 04/M03 A2999 RMK A01 T00381025  RH  064%=      5-min Rain = 0
KTAS 190450Z 33031G37KT 04/M03 A2999 RMK A01 T00371025  RH  064%=      5-min Rain = 0
KTAS 190451Z 33030KT 04/M03 A2999 RMK A01 T00361026  RH  064%=      5-min Rain = 0
KTAS 190452Z 33028G35KT 04/M03 A2999 RMK A01 T00361028  RH  063%=      5-min Rain = 0
KTAS 190453Z 33028KT 04/M03 A2999 RMK A01 T00351029  RH  063%=      5-min Rain = 0
KTAS 190454Z 34023G28KT 04/M03 A30 RMK A01 T00351029  RH  063%=      5-min Rain = 0
KTAS 190455Z 33027G35KT 04/M03 A30 RMK A01 T00351030  RH  063%=      5-min Rain = 0
KTAS 190456Z 33030G37KT 04/M03 A30 RMK A01 T00351030  RH  063%=      5-min Rain = 0
KTAS 190457Z 34030G40KT 03/M03 A30 RMK A01 T00341031  RH  062%=      5-min Rain = 0
KTAS 190458Z 34027G32KT 03/M03 A30 RMK A01 T00341031  RH  062%=      5-min Rain = 0
KTAS 190459Z 34028KT 03/M03 A30 RMK A01 T00331031  RH  063%=      5-min Rain = 0
KTAS 190500Z 34029G34KT 03/M03 A30 RMK A01 T00331031  RH  063%=      5-min Rain = 0
KTAS 190501Z 34029G34KT 03/M03 A30 RMK A01 T00331032  RH  063%=      5-min Rain = 0
KTAS 190502Z 33031KT 03/M03 A30 RMK A01 T00321032  RH  063%=      5-min Rain = 0
KTAS 190503Z 34027G32KT 03/M03 A30 RMK A01 T00321032  RH  063%=      5-min Rain = 0
KTAS 190504Z 34027G36KT 03/M03 A3001 RMK A01 T00321032  RH  063%=      5-min Rain = 0
KTAS 190505Z 34028G33KT 03/M03 A3001 RMK A01 T00321032  RH  063%=      5-min Rain = 0
KTAS 190506Z 34024KT 03/M03 A3001 RMK A01 T00311032  RH  063%=      5-min Rain = 0
KTAS 190507Z 34028G33KT 03/M03 A3001 RMK A01 T00311032  RH  063%=      5-min Rain = 0
KTAS 190508Z 34031KT 03/M03 A3001 RMK A01 T00321032  RH  063%=      5-min Rain = 0
KTAS 190509Z 33028G33KT 03/M03 A3001 RMK A01 T00321032  RH  063%=      5-min Rain = 0
KTAS 190510Z 33027G35KT 03/M03 A3001 RMK A01 T00321032  RH  063%=      5-min Rain = 0
KTAS 190511Z 33028G35KT 03/M03 A3001 RMK A01 T00321032  RH  063%=      5-min Rain = 0
KTAS 190512Z 34025G31KT 03/M03 A3001 RMK A01 T00331031  RH  063%=      5-min Rain = 0
KTAS 190513Z 34029G34KT 03/M03 A3001 RMK A01 T00331031  RH  063%=      5-min Rain = 0
KTAS 190514Z 35025G33KT 03/M03 A3001 RMK A01 T00331031  RH  063%=      5-min Rain = 0
KTAS 190515Z 34027G33KT 03/M03 A3001 RMK A01 T00341031  RH  063%=      5-min Rain = 0
KTAS 190516Z 34027KT 03/M03 A3002 RMK A01 T00341031  RH  063%=      5-min Rain = 0
KTAS 190517Z 33024G30KT 03/M03 A3002 RMK A01 T00341031  RH  063%=      5-min Rain = 0
KTAS 190518Z 33025KT 03/M03 A3002 RMK A01 T00341031  RH  063%=      5-min Rain = 0
KTAS 190519Z 33026KT 03/M03 A3002 RMK A01 T00341030  RH  063%=      5-min Rain = 0
KTAS 190520Z 34018G25KT 03/M03 A3002 RMK A01 T00341030  RH  063%=      5-min Rain = 0
KTAS 190521Z 33021G26KT 03/M03 A3002 RMK A01 T00341030  RH  063%=      5-min Rain = 0
KTAS 190522Z 34028G35KT 03/M03 A3002 RMK A01 T00341031  RH  063%=      5-min Rain = 0
KTAS 190523Z 34026G33KT 03/M03 A3002 RMK A01 T00331032  RH  062%=      5-min Rain = 0
KTAS 190524Z 34029G35KT 03/M03 A3002 RMK A01 T00331032  RH  062%=      5-min Rain = 0
KTAS 190525Z 34030G36KT 03/M03 A3002 RMK A01 T00331032  RH  062%=      5-min Rain = 0
KTAS 190526Z 34028G35KT 03/M03 A3002 RMK A01 T00331032  RH  062%=      5-min Rain = 0
KTAS 190527Z 34025G37KT 03/M03 A3002 RMK A01 T00331032  RH  063%=      5-min Rain = 0
KTAS 190528Z 34031KT 03/M03 A3002 RMK A01 T00321031  RH  063%=      5-min Rain = 0
KTAS 190529Z 34029G35KT 03/M03 A3002 RMK A01 T00311030  RH  064%=      5-min Rain = 0
KTAS 190530Z 34028G35KT 03/M03 A3003 RMK A01 T00311029  RH  065%=      5-min Rain = 0
KTAS 190531Z 34028G37KT 03/M03 A3002 RMK A01 T00301028  RH  065%=      5-min Rain = 0
KTAS 190532Z 34028G33KT 03/M03 A3003 RMK A01 T00301028  RH  066%=      5-min Rain = 0
KTAS 190533Z 34030G35KT 03/M03 A3003 RMK A01 T00301028  RH  066%=      5-min Rain = 0
KTAS 190534Z 35025G32KT 03/M03 A3003 RMK A01 T00301027  RH  066%=      5-min Rain = 0
KTAS 190535Z 34024KT 03/M03 A3003 RMK A01 T00301027  RH  066%=      5-min Rain = 0
KTAS 190536Z 34024G30KT 03/M03 A3003 RMK A01 T00301027  RH  066%=      5-min Rain = 0
KTAS 190537Z 35022G30KT 03/M03 A3003 RMK A01 T00301027  RH  066%=      5-min Rain = 0
KTAS 190538Z 34024G33KT 03/M03 A3003 RMK A01 T00311027  RH  066%=      5-min Rain = 0
KTAS 190539Z 34028G33KT 03/M03 A3003 RMK A01 T00311028  RH  065%=      5-min Rain = 0
KTAS 190540Z 35025G30KT 03/M03 A3003 RMK A01 T00311028  RH  065%=      5-min Rain = 0
KTAS 190541Z 34023G31KT 03/M03 A3004 RMK A01 T00311028  RH  065%=      5-min Rain = 0
KTAS 190542Z 34024G31KT 03/M03 A3004 RMK A01 T00311028  RH  065%=      5-min Rain = 0
KTAS 190543Z 35029KT 03/M03 A3004 RMK A01 T00311028  RH  065%=      5-min Rain = 0
KTAS 190544Z 35030KT 03/M03 A3004 RMK A01 T00311028  RH  065%=      5-min Rain = 0
KTAS 190545Z 35025KT 03/M03 A3004 RMK A01 T00311027  RH  066%=      5-min Rain = 0
KTAS 190546Z 35026G33KT 03/M03 A3004 RMK A01 T00311027  RH  066%=      5-min Rain = 0
KTAS 190547Z 35031G36KT 03/M03 A3004 RMK A01 T00291026  RH  067%=      5-min Rain = 0
KTAS 190548Z 34027G33KT 03/M03 A3004 RMK A01 T00291025  RH  068%=      5-min Rain = 0
KTAS 190549Z 35024KT 03/M02 A3004 RMK A01 T00281023  RH  069%=      5-min Rain = 0
KTAS 190550Z 35023G29KT 03/M02 A3004 RMK A01 T00271022  RH  070%=      5-min Rain = 0
KTAS 190551Z 34025KT 03/M02 A3004 RMK A01 T00261021  RH  071%=      5-min Rain = 0
KTAS 190552Z 34023G29KT 03/M02 A3004 RMK A01 T00251020  RH  072%=      5-min Rain = 0
KTAS 190553Z 34022KT 03/M02 A3005 RMK A01 T00251019  RH  073%=      5-min Rain = 0
KTAS 190554Z 34019G25KT 03/M02 A3005 RMK A01 T00251018  RH  073%=      5-min Rain = 0
KTAS 190555Z 34024G30KT 03/M02 A3004 RMK A01 T00251017  RH  074%=      5-min Rain = 0
KTAS 190556Z 34021KT 03/M02 A3005 RMK A01 T00251017  RH  074%=      5-min Rain = 0
KTAS 190557Z 34021KT 03/M02 A3005 RMK A01 T00251016  RH  074%=      5-min Rain = 0
KTAS 190558Z 34022KT 03/M02 A3005 RMK A01 T00251016  RH  074%=      5-min Rain = 0
KTAS 190559Z 34021G28KT 03/M02 A3005 RMK A01 T00251016  RH  074%=      5-min Rain = 0

Page generated in 0.0327 seconds.